Time,TemperatureF,DewpointF,PressureIn,WindDirection,WindDirectionDegrees,WindSpeedMPH,WindSpeedGustMPH,Humidity,HourlyPrecipIn,Conditions,Clouds,dailyrainin,SolarRadiationWatts/m^2,SoftwareType,DateUTC
2013-02-24 00:00:00,26.5,22.0,29.97,NNW,348,3.0,5.0,83,0.00,,,0.01,0.00,VWS V14.01,2013-02-24 05:00:00,
2013-02-24 00:05:00,26.5,22.0,29.97,NNW,348,3.0,5.0,83,0.00,,,0.00,0.00,VWS V14.01,2013-02-24 05:05:00,
2013-02-24 00:10:00,26.5,22.0,29.98,NNW,345,5.0,9.0,83,0.00,,,0.00,0.00,VWS V14.01,2013-02-24 05:10:00,
2013-02-24 00:15:00,26.5,22.0,29.98,North,5,7.0,7.0,83,0.00,,,0.00,0.00,VWS V14.01,2013-02-24 05:15:00,
2013-02-24 00:20:00,26.4,22.0,29.98,NNE,17,5.0,7.0,83,0.00,,,0.00,0.00,VWS V14.01,2013-02-24 05:20:00,
2013-02-24 00:25:00,26.4,21.7,29.98,NNW,346,3.0,3.0,82,0.00,,,0.00,0.00,VWS V14.01,2013-02-24 05:25:00,
2013-02-24 00:30:00,26.3,21.6,29.98,North,349,3.0,4.0,82,0.00,,,0.00,0.00,VWS V14.01,2013-02-24 05:30:00,
2013-02-24 00:35:00,26.3,21.6,29.98,NNW,344,3.0,3.0,82,0.00,,,0.00,0.00,VWS V14.01,2013-02-24 05:35:00,
2013-02-24 00:40:00,26.3,21.6,29.98,NNW,346,6.0,6.0,82,0.00,,,0.00,0.00,VWS V14.01,2013-02-24 05:40:00,
2013-02-24 00:41:00,26.4,21.7,29.98,NNE,17,3.0,6.0,82,0.00,,,0.00,0.00,VWS V14.01,2013-02-24 05:41:00,
2013-02-24 00:45:00,26.4,21.7,29.98,NNW,341,6.0,6.0,82,0.00,,,0.00,0.00,VWS V14.01,2013-02-24 05:45:00,
2013-02-24 00:50:00,26.4,21.7,29.98,North,355,5.0,5.0,82,0.00,,,0.00,0.00,VWS V14.01,2013-02-24 05:50:00,
2013-02-24 00:51:00,26.4,21.7,29.98,NNW,347,7.0,7.0,82,0.00,,,0.00,0.00,VWS V14.01,2013-02-24 05:51:00,
2013-02-24 00:55:00,26.4,21.7,29.98,NNE,21,4.0,7.0,82,0.00,,,0.00,0.00,VWS V14.01,2013-02-24 05:55:00,
2013-02-24 00:56:00,26.4,21.7,29.98,NNE,28,5.0,7.0,82,0.00,,,0.00,0.00,VWS V14.01,2013-02-24 05:56:00,
2013-02-24 01:00:00,26.3,21.3,29.98,North,355,6.0,9.0,81,0.00,,,0.00,0.00,VWS V14.01,2013-02-24 06:00:00,
2013-02-24 01:01:00,26.3,21.3,29.98,NNW,348,9.0,14.0,81,0.00,,,0.00,0.00,VWS V14.01,2013-02-24 06:01:00,
2013-02-24 01:05:00,26.3,21.3,29.99,NNE,13,2.0,6.0,81,0.00,,,0.00,0.00,VWS V14.01,2013-02-24 06:05:00,
2013-02-24 01:06:00,26.3,21.3,29.99,NNE,13,4.0,6.0,81,0.00,,,0.00,0.00,VWS V14.01,2013-02-24 06:06:00,
2013-02-24 01:10:00,26.4,21.4,29.99,North,5,6.0,9.0,81,0.00,,,0.00,0.00,VWS V14.01,2013-02-24 06:10:00,
2013-02-24 01:11:00,26.4,21.4,29.99,North,5,4.0,9.0,81,0.00,,,0.00,0.00,VWS V14.01,2013-02-24 06:11:00,
2013-02-24 01:15:00,26.4,21.4,29.99,NNW,344,2.0,4.0,81,0.00,,,0.00,0.00,VWS V14.01,2013-02-24 06:15:00,
2013-02-24 01:16:00,26.4,21.4,29.99,NNW,344,0.0,4.0,81,0.00,,,0.00,0.00,VWS V14.01,2013-02-24 06:16:00,
2013-02-24 01:21:00,26.5,21.5,29.99,North,5,9.0,9.0,81,0.00,,,0.00,0.00,VWS V14.01,2013-02-24 06:21:00,
2013-02-24 01:26:00,26.6,21.6,30.00,North,360,4.0,5.0,81,0.00,,,0.00,0.00,VWS V14.01,2013-02-24 06:26:00,
2013-02-24 01:31:00,26.6,21.3,30.00,North,349,3.0,4.0,80,0.00,,,0.00,0.00,VWS V14.01,2013-02-24 06:31:00,
2013-02-24 01:36:00,26.7,21.7,30.00,North,350,7.0,7.0,81,0.00,,,0.00,0.00,VWS V14.01,2013-02-24 06:36:00,
2013-02-24 01:41:00,26.7,21.4,30.00,North,355,3.0,5.0,80,0.00,,,0.00,0.00,VWS V14.01,2013-02-24 06:41:00,
2013-02-24 01:42:00,26.7,21.4,30.00,North,351,3.0,5.0,80,0.00,,,0.00,0.00,VWS V14.01,2013-02-24 06:42:00,
2013-02-24 01:46:00,26.7,21.1,30.00,NNW,332,5.0,10.0,79,0.00,,,0.00,0.00,VWS V14.01,2013-02-24 06:46:00,
2013-02-24 01:47:00,26.7,21.1,30.00,NNW,340,4.0,7.0,79,0.00,,,0.00,0.00,VWS V14.01,2013-02-24 06:47:00,
2013-02-24 01:51:00,26.7,21.1,30.00,North,5,3.0,4.0,79,0.00,,,0.00,0.00,VWS V14.01,2013-02-24 06:51:00,
2013-02-24 01:52:00,26.7,21.1,30.00,North,5,1.0,3.0,79,0.00,,,0.00,0.00,VWS V14.01,2013-02-24 06:52:00,
2013-02-24 01:56:00,26.7,21.1,30.00,North,355,3.0,6.0,79,0.00,,,0.00,0.00,VWS V14.01,2013-02-24 06:56:00,
2013-02-24 01:57:00,26.7,21.1,30.00,North,355,2.0,4.0,79,0.00,,,0.00,0.00,VWS V14.01,2013-02-24 06:57:00,
2013-02-24 02:01:00,26.7,21.1,30.00,North,355,3.0,5.0,79,0.00,,,0.00,0.00,VWS V14.01,2013-02-24 07:01:00,
2013-02-24 02:02:00,26.7,21.1,30.00,North,355,3.0,5.0,79,0.00,,,0.00,0.00,VWS V14.01,2013-02-24 07:02:00,
2013-02-24 02:06:00,26.7,20.8,30.00,North,5,2.0,5.0,78,0.00,,,0.00,0.00,VWS V14.01,2013-02-24 07:06:00,
2013-02-24 02:07:00,26.7,21.1,30.00,North,360,3.0,5.0,79,0.00,,,0.00,0.00,VWS V14.01,2013-02-24 07:07:00,
2013-02-24 02:11:00,26.7,21.1,30.00,NNW,347,4.0,5.0,79,0.00,,,0.00,0.00,VWS V14.01,2013-02-24 07:11:00,
2013-02-24 02:12:00,26.7,21.1,30.00,NNW,346,3.0,4.0,79,0.00,,,0.00,0.00,VWS V14.01,2013-02-24 07:12:00,
2013-02-24 02:16:00,26.7,21.1,30.00,North,360,3.0,4.0,79,0.00,,,0.00,0.00,VWS V14.01,2013-02-24 07:16:00,
2013-02-24 02:17:00,26.7,21.1,30.00,NNW,338,4.0,6.0,79,0.00,,,0.00,0.00,VWS V14.01,2013-02-24 07:17:00,
2013-02-24 02:21:00,26.7,21.1,30.00,North,355,6.0,9.0,79,0.00,,,0.00,0.00,VWS V14.01,2013-02-24 07:21:00,
2013-02-24 02:22:00,26.7,21.1,30.00,North,10,3.0,3.0,79,0.00,,,0.00,0.00,VWS V14.01,2013-02-24 07:22:00,
2013-02-24 02:26:00,26.7,21.1,30.00,North,351,2.0,8.0,79,0.00,,,0.00,0.00,VWS V14.01,2013-02-24 07:26:00,
2013-02-24 02:27:00,26.7,21.1,30.00,NNE,20,4.0,4.0,79,0.00,,,0.00,0.00,VWS V14.01,2013-02-24 07:27:00,
2013-02-24 02:31:00,26.7,21.1,30.01,North,350,5.0,7.0,79,0.00,,,0.00,0.00,VWS V14.01,2013-02-24 07:31:00,
2013-02-24 02:32:00,26.7,21.1,30.01,North,350,1.0,3.0,79,0.00,,,0.00,0.00,VWS V14.01,2013-02-24 07:32:00,
2013-02-24 02:36:00,26.7,21.1,30.00,NNW,338,4.0,6.0,79,0.00,,,0.00,0.00,VWS V14.01,2013-02-24 07:36:00,
2013-02-24 02:37:00,26.8,21.5,30.00,NNE,14,8.0,8.0,80,0.00,,,0.00,0.00,VWS V14.01,2013-02-24 07:37:00,
2013-02-24 02:41:00,26.8,21.2,30.00,North,349,4.0,5.0,79,0.00,,,0.00,0.00,VWS V14.01,2013-02-24 07:41:00,
2013-02-24 02:42:00,26.8,21.2,30.00,North,355,3.0,4.0,79,0.00,,,0.00,0.00,VWS V14.01,2013-02-24 07:42:00,
2013-02-24 02:46:00,26.8,21.5,30.00,NNW,347,6.0,6.0,80,0.00,,,0.00,0.00,VWS V14.01,2013-02-24 07:46:00,
2013-02-24 02:47:00,26.8,21.5,30.01,NNW,348,3.0,4.0,80,0.00,,,0.00,0.00,VWS V14.01,2013-02-24 07:47:00,
2013-02-24 02:51:00,26.8,21.2,30.01,NNW,342,5.0,8.0,79,0.00,,,0.00,0.00,VWS V14.01,2013-02-24 07:51:00,
2013-02-24 02:53:00,26.8,21.2,30.00,North,360,6.0,7.0,79,0.00,,,0.00,0.00,VWS V14.01,2013-02-24 07:53:00,
2013-02-24 02:56:00,26.8,21.2,30.00,North,360,5.0,8.0,79,0.00,,,0.00,0.00,VWS V14.01,2013-02-24 07:56:00,
2013-02-24 02:58:00,26.7,21.1,30.00,North,360,4.0,4.0,79,0.00,,,0.00,0.00,VWS V14.01,2013-02-24 07:58:00,
2013-02-24 03:01:00,26.7,21.1,30.01,North,360,2.0,3.0,79,0.00,,,0.00,0.00,VWS V14.01,2013-02-24 08:01:00,
2013-02-24 03:03:00,26.7,21.4,30.01,North,350,3.0,6.0,80,0.00,,,0.00,0.00,VWS V14.01,2013-02-24 08:03:00,
2013-02-24 03:06:00,26.7,21.4,30.00,North,351,4.0,4.0,80,0.00,,,0.00,0.00,VWS V14.01,2013-02-24 08:06:00,
2013-02-24 03:07:00,26.7,21.4,30.00,North,355,4.0,7.0,80,0.00,,,0.00,0.00,VWS V14.01,2013-02-24 08:07:00,
2013-02-24 03:08:00,26.7,21.4,30.00,North,9,4.0,5.0,80,0.00,,,0.00,0.00,VWS V14.01,2013-02-24 08:08:00,
2013-02-24 03:11:00,26.7,21.1,30.00,North,5,3.0,3.0,79,0.00,,,0.00,0.00,VWS V14.01,2013-02-24 08:11:00,
2013-02-24 03:12:00,26.7,21.1,30.00,North,5,3.0,3.0,79,0.00,,,0.00,0.00,VWS V14.01,2013-02-24 08:12:00,
2013-02-24 03:14:00,26.7,21.4,30.00,NNE,22,3.0,6.0,80,0.00,,,0.00,0.00,VWS V14.01,2013-02-24 08:14:00,
2013-02-24 03:16:00,26.7,21.4,30.00,North,360,6.0,7.0,80,0.00,,,0.00,0.00,VWS V14.01,2013-02-24 08:16:00,
2013-02-24 03:17:00,26.7,21.4,30.00,North,360,4.0,7.0,80,0.00,,,0.00,0.00,VWS V14.01,2013-02-24 08:17:00,
2013-02-24 03:19:00,26.7,21.4,30.00,North,360,1.0,5.0,80,0.00,,,0.00,0.00,VWS V14.01,2013-02-24 08:19:00,
2013-02-24 03:21:00,26.7,21.4,30.00,North,355,3.0,5.0,80,0.00,,,0.00,0.00,VWS V14.01,2013-02-24 08:21:00,
2013-02-24 03:22:00,26.7,21.4,30.00,NNW,346,6.0,6.0,80,0.00,,,0.00,0.00,VWS V14.01,2013-02-24 08:22:00,
2013-02-24 03:24:00,26.6,21.0,30.00,North,355,4.0,6.0,79,0.00,,,0.00,0.00,VWS V14.01,2013-02-24 08:24:00,
2013-02-24 03:26:00,26.6,21.0,30.00,North,5,6.0,7.0,79,0.00,,,0.00,0.00,VWS V14.01,2013-02-24 08:26:00,
2013-02-24 03:27:00,26.6,21.0,30.00,NNW,348,8.0,8.0,79,0.00,,,0.00,0.00,VWS V14.01,2013-02-24 08:27:00,
2013-02-24 03:29:00,26.6,21.0,30.00,North,360,5.0,9.0,79,0.00,,,0.00,0.00,VWS V14.01,2013-02-24 08:29:00,
2013-02-24 03:31:00,26.6,21.0,30.00,North,355,4.0,8.0,79,0.00,,,0.00,0.00,VWS V14.01,2013-02-24 08:31:00,
2013-02-24 03:32:00,26.6,21.0,30.00,North,5,3.0,8.0,79,0.00,,,0.00,0.00,VWS V14.01,2013-02-24 08:32:00,
2013-02-24 03:34:00,26.6,21.0,30.00,North,5,6.0,7.0,79,0.00,,,0.00,0.00,VWS V14.01,2013-02-24 08:34:00,
2013-02-24 03:36:00,26.6,21.0,30.00,NNW,346,4.0,9.0,79,0.00,,,0.00,0.00,VWS V14.01,2013-02-24 08:36:00,
2013-02-24 03:37:00,26.6,21.0,30.00,North,355,7.0,9.0,79,0.00,,,0.00,0.00,VWS V14.01,2013-02-24 08:37:00,
2013-02-24 03:39:00,26.6,21.0,30.00,North,5,6.0,9.0,79,0.00,,,0.00,0.00,VWS V14.01,2013-02-24 08:39:00,
2013-02-24 03:41:00,26.6,21.0,30.00,North,355,1.0,5.0,79,0.00,,,0.00,0.00,VWS V14.01,2013-02-24 08:41:00,
2013-02-24 03:42:00,26.6,21.0,30.00,North,355,1.0,5.0,79,0.00,,,0.00,0.00,VWS V14.01,2013-02-24 08:42:00,
2013-02-24 03:44:00,26.5,20.9,30.00,NNW,346,7.0,8.0,79,0.00,,,0.00,0.00,VWS V14.01,2013-02-24 08:44:00,
2013-02-24 03:46:00,26.5,20.9,30.01,North,355,5.0,10.0,79,0.00,,,0.00,0.00,VWS V14.01,2013-02-24 08:46:00,
2013-02-24 03:47:00,26.5,20.9,30.01,North,351,3.0,10.0,79,0.00,,,0.00,0.00,VWS V14.01,2013-02-24 08:47:00,
2013-02-24 03:49:00,26.5,20.9,30.01,NNW,348,2.0,2.0,79,0.00,,,0.00,0.00,VWS V14.01,2013-02-24 08:49:00,
2013-02-24 03:51:00,26.5,20.9,30.01,North,355,4.0,6.0,79,0.00,,,0.00,0.00,VWS V14.01,2013-02-24 08:51:00,
2013-02-24 03:52:00,26.5,20.9,30.01,North,355,4.0,6.0,79,0.00,,,0.00,0.00,VWS V14.01,2013-02-24 08:52:00,
2013-02-24 03:54:00,26.5,20.9,30.01,North,360,7.0,8.0,79,0.00,,,0.00,0.00,VWS V14.01,2013-02-24 08:54:00,
2013-02-24 03:56:00,26.5,20.9,30.01,North,350,4.0,7.0,79,0.00,,,0.00,0.00,VWS V14.01,2013-02-24 08:56:00,
2013-02-24 03:57:00,26.5,20.9,30.01,NNW,348,2.0,7.0,79,0.00,,,0.00,0.00,VWS V14.01,2013-02-24 08:57:00,
2013-02-24 03:59:00,26.4,20.5,30.01,NNW,346,6.0,6.0,78,0.00,,,0.00,0.00,VWS V14.01,2013-02-24 08:59:00,
2013-02-24 04:01:00,26.4,20.5,30.01,NNW,348,7.0,7.0,78,0.00,,,0.00,0.00,VWS V14.01,2013-02-24 09:01:00,
2013-02-24 04:02:00,26.4,20.5,30.01,NNW,338,3.0,8.0,78,0.00,,,0.00,0.00,VWS V14.01,2013-02-24 09:02:00,
2013-02-24 04:04:00,26.5,20.9,30.01,NNW,342,5.0,5.0,79,0.00,,,0.00,0.00,VWS V14.01,2013-02-24 09:04:00,
2013-02-24 04:07:00,26.5,20.9,30.02,NNW,344,2.0,3.0,79,0.00,,,0.00,0.00,VWS V14.01,2013-02-24 09:07:00,
2013-02-24 04:09:00,26.4,20.8,30.01,NNW,348,3.0,3.0,79,0.00,,,0.00,0.00,VWS V14.01,2013-02-24 09:09:00,
2013-02-24 04:12:00,26.4,20.8,30.02,NNW,346,6.0,9.0,79,0.00,,,0.00,0.00,VWS V14.01,2013-02-24 09:12:00,
2013-02-24 04:14:00,26.4,21.1,30.01,NNW,342,5.0,5.0,80,0.00,,,0.00,0.00,VWS V14.01,2013-02-24 09:14:00,
2013-02-24 04:17:00,26.4,21.1,30.02,NNE,22,2.0,4.0,80,0.00,,,0.00,0.00,VWS V14.01,2013-02-24 09:17:00,
2013-02-24 04:19:00,26.4,21.1,30.01,NNE,19,1.0,2.0,80,0.00,,,0.00,0.00,VWS V14.01,2013-02-24 09:19:00,
2013-02-24 04:22:00,26.4,21.1,30.01,NNE,19,0.0,3.0,80,0.00,,,0.00,0.00,VWS V14.01,2013-02-24 09:22:00,
2013-02-24 04:24:00,26.4,21.4,30.01,North,5,3.0,6.0,81,0.00,,,0.00,0.00,VWS V14.01,2013-02-24 09:24:00,
2013-02-24 04:27:00,26.4,21.4,30.01,North,355,1.0,5.0,81,0.00,,,0.00,0.00,VWS V14.01,2013-02-24 09:27:00,
2013-02-24 04:28:00,26.4,21.4,30.01,North,355,3.0,3.0,81,0.00,,,0.00,0.00,VWS V14.01,2013-02-24 09:28:00,
2013-02-24 04:29:00,26.4,21.4,30.01,North,355,0.0,3.0,81,0.00,,,0.00,0.00,VWS V14.01,2013-02-24 09:29:00,
2013-02-24 04:32:00,26.4,21.4,30.01,North,355,0.0,1.0,81,0.00,,,0.00,0.00,VWS V14.01,2013-02-24 09:32:00,
2013-02-24 04:33:00,26.4,21.4,30.01,North,355,0.0,3.0,81,0.00,,,0.00,0.00,VWS V14.01,2013-02-24 09:33:00,
2013-02-24 04:34:00,26.4,21.4,30.01,North,355,1.0,1.0,81,0.00,,,0.00,0.00,VWS V14.01,2013-02-24 09:34:00,
2013-02-24 04:37:00,26.4,21.7,30.01,North,355,3.0,5.0,82,0.00,,,0.00,0.00,VWS V14.01,2013-02-24 09:37:00,
2013-02-24 04:38:00,26.4,21.4,30.01,North,355,3.0,4.0,81,0.00,,,0.00,0.00,VWS V14.01,2013-02-24 09:38:00,
2013-02-24 04:39:00,26.4,21.4,30.01,North,355,0.0,3.0,81,0.00,,,0.00,0.00,VWS V14.01,2013-02-24 09:39:00,
2013-02-24 04:42:00,26.4,21.7,30.01,North,355,3.0,4.0,82,0.00,,,0.00,0.00,VWS V14.01,2013-02-24 09:42:00,
2013-02-24 04:43:00,26.4,21.7,30.01,North,355,1.0,3.0,82,0.00,,,0.00,0.00,VWS V14.01,2013-02-24 09:43:00,
2013-02-24 04:44:00,26.4,21.7,30.02,North,355,1.0,2.0,82,0.00,,,0.00,0.00,VWS V14.01,2013-02-24 09:44:00,
2013-02-24 04:47:00,26.4,21.7,30.02,North,355,3.0,6.0,82,0.00,,,0.00,0.00,VWS V14.01,2013-02-24 09:47:00,
2013-02-24 04:48:00,26.4,21.4,30.02,North,355,2.0,5.0,81,0.00,,,0.00,0.00,VWS V14.01,2013-02-24 09:48:00,
2013-02-24 04:49:00,26.4,21.7,30.02,North,355,0.0,2.0,82,0.00,,,0.00,0.00,VWS V14.01,2013-02-24 09:49:00,
2013-02-24 04:52:00,26.4,21.7,30.02,North,351,1.0,3.0,82,0.00,,,0.00,0.00,VWS V14.01,2013-02-24 09:52:00,
2013-02-24 04:53:00,26.4,21.7,30.03,North,350,1.0,4.0,82,0.00,,,0.00,0.00,VWS V14.01,2013-02-24 09:53:00,
2013-02-24 04:55:00,26.4,21.7,30.03,North,350,1.0,5.0,82,0.00,,,0.00,0.00,VWS V14.01,2013-02-24 09:55:00,
2013-02-24 04:57:00,26.4,21.7,30.03,NNW,348,0.0,4.0,82,0.00,,,0.00,0.00,VWS V14.01,2013-02-24 09:57:00,
2013-02-24 05:00:00,26.4,21.7,30.03,NNW,343,7.0,7.0,82,0.00,,,0.00,0.00,VWS V14.01,2013-02-24 10:00:00,
2013-02-24 05:02:00,26.4,21.7,30.03,NNW,348,5.0,8.0,82,0.00,,,0.00,0.00,VWS V14.01,2013-02-24 10:02:00,
2013-02-24 05:03:00,26.3,21.6,30.03,North,349,6.0,7.0,82,0.00,,,0.00,0.00,VWS V14.01,2013-02-24 10:03:00,
2013-02-24 05:05:00,26.3,21.6,30.03,NNW,346,1.0,6.0,82,0.00,,,0.00,0.00,VWS V14.01,2013-02-24 10:05:00,
2013-02-24 05:07:00,26.3,21.6,30.03,NNW,346,5.0,5.0,82,0.00,,,0.00,0.00,VWS V14.01,2013-02-24 10:07:00,
2013-02-24 05:08:00,26.3,21.9,30.03,North,355,3.0,8.0,83,0.00,,,0.00,0.00,VWS V14.01,2013-02-24 10:08:00,
2013-02-24 05:10:00,26.3,21.9,30.03,North,355,5.0,7.0,83,0.00,,,0.00,0.00,VWS V14.01,2013-02-24 10:10:00,
2013-02-24 05:12:00,26.2,21.8,30.03,NNW,347,5.0,5.0,83,0.00,,,0.00,0.00,VWS V14.01,2013-02-24 10:12:00,
2013-02-24 05:13:00,26.2,21.8,30.03,North,351,5.0,6.0,83,0.00,,,0.00,0.00,VWS V14.01,2013-02-24 10:13:00,
2013-02-24 05:15:00,26.1,21.6,30.03,North,355,2.0,5.0,83,0.00,,,0.00,0.00,VWS V14.01,2013-02-24 10:15:00,
2013-02-24 05:17:00,26.0,21.6,30.03,North,351,7.0,7.0,83,0.00,,,0.00,0.00,VWS V14.01,2013-02-24 10:17:00,
2013-02-24 05:18:00,26.0,21.6,30.03,North,360,2.0,8.0,83,0.00,,,0.00,0.00,VWS V14.01,2013-02-24 10:18:00,
2013-02-24 05:20:00,25.9,21.5,30.04,NW,323,5.0,5.0,83,0.00,,,0.00,0.00,VWS V14.01,2013-02-24 10:20:00,
2013-02-24 05:22:00,25.8,21.4,30.04,NNW,343,2.0,2.0,83,0.00,,,0.00,0.00,VWS V14.01,2013-02-24 10:22:00,
2013-02-24 05:23:00,25.8,21.4,30.04,NNW,343,2.0,4.0,83,0.00,,,0.00,0.00,VWS V14.01,2013-02-24 10:23:00,
2013-02-24 05:25:00,25.7,21.3,30.04,NNW,344,2.0,5.0,83,0.00,,,0.00,0.00,VWS V14.01,2013-02-24 10:25:00,
2013-02-24 05:27:00,25.6,21.2,30.03,NNW,346,5.0,6.0,83,0.00,,,0.00,0.00,VWS V14.01,2013-02-24 10:27:00,
2013-02-24 05:28:00,25.6,21.2,30.03,North,351,1.0,6.0,83,0.00,,,0.00,0.00,VWS V14.01,2013-02-24 10:28:00,
2013-02-24 05:30:00,25.5,21.4,30.04,North,351,1.0,1.0,84,0.00,,,0.00,0.00,VWS V14.01,2013-02-24 10:30:00,
2013-02-24 05:32:00,25.4,21.2,30.04,North,351,2.0,4.0,84,0.00,,,0.00,0.00,VWS V14.01,2013-02-24 10:32:00,
2013-02-24 05:33:00,25.3,21.1,30.04,North,351,0.0,4.0,84,0.00,,,0.00,0.00,VWS V14.01,2013-02-24 10:33:00,
2013-02-24 05:35:00,25.2,21.0,30.03,North,350,0.0,2.0,84,0.00,,,0.00,0.00,VWS V14.01,2013-02-24 10:35:00,
2013-02-24 05:37:00,25.1,21.0,30.04,NNW,337,3.0,3.0,84,0.00,,,0.00,0.00,VWS V14.01,2013-02-24 10:37:00,
2013-02-24 05:38:00,25.1,21.0,30.04,NNW,337,2.0,3.0,84,0.00,,,0.00,0.00,VWS V14.01,2013-02-24 10:38:00,
2013-02-24 05:40:00,25.0,20.9,30.04,NNW,337,0.0,1.0,84,0.00,,,0.00,0.00,VWS V14.01,2013-02-24 10:40:00,
2013-02-24 05:42:00,25.0,20.9,30.03,NNW,337,3.0,3.0,84,0.00,,,0.00,0.00,VWS V14.01,2013-02-24 10:42:00,
2013-02-24 05:43:00,25.0,20.9,30.03,NNW,337,3.0,3.0,84,0.00,,,0.00,0.00,VWS V14.01,2013-02-24 10:43:00,
2013-02-24 05:45:00,24.8,20.7,30.04,NNW,340,3.0,4.0,84,0.00,,,0.00,0.00,VWS V14.01,2013-02-24 10:45:00,
2013-02-24 05:47:00,24.8,20.9,30.04,North,350,0.0,0.0,85,0.00,,,0.00,0.00,VWS V14.01,2013-02-24 10:47:00,
2013-02-24 05:48:00,24.7,20.8,30.04,North,350,1.0,1.0,85,0.00,,,0.00,0.00,VWS V14.01,2013-02-24 10:48:00,
2013-02-24 05:50:00,24.7,20.8,30.04,North,350,2.0,2.0,85,0.00,,,0.00,0.00,VWS V14.01,2013-02-24 10:50:00,
2013-02-24 05:52:00,24.6,20.7,30.04,North,350,0.0,0.0,85,0.00,,,0.00,0.00,VWS V14.01,2013-02-24 10:52:00,
2013-02-24 05:53:00,24.6,20.7,30.04,North,350,0.0,0.0,85,0.00,,,0.00,0.00,VWS V14.01,2013-02-24 10:53:00,
2013-02-24 05:55:00,24.5,20.6,30.04,North,350,0.0,0.0,85,0.00,,,0.00,0.00,VWS V14.01,2013-02-24 10:55:00,
2013-02-24 05:58:00,24.5,20.9,30.04,North,350,1.0,1.0,86,0.00,,,0.00,0.00,VWS V14.01,2013-02-24 10:58:00,
2013-02-24 06:00:00,24.4,20.8,30.04,WNW,296,0.0,1.0,86,0.00,,,0.00,0.00,VWS V14.01,2013-02-24 11:00:00,
2013-02-24 06:03:00,24.4,20.8,30.04,WNW,298,0.0,0.0,86,0.00,,,0.00,0.00,VWS V14.01,2013-02-24 11:03:00,
2013-02-24 06:05:00,24.3,20.7,30.04,WNW,298,0.0,1.0,86,0.00,,,0.00,0.00,VWS V14.01,2013-02-24 11:05:00,
2013-02-24 06:08:00,24.3,20.7,30.04,WNW,298,2.0,2.0,86,0.00,,,0.00,0.00,VWS V14.01,2013-02-24 11:08:00,
2013-02-24 06:10:00,24.2,20.9,30.04,WNW,298,0.0,0.0,87,0.00,,,0.00,0.00,VWS V14.01,2013-02-24 11:10:00,
2013-02-24 06:13:00,24.2,20.9,30.04,WNW,298,0.0,2.0,87,0.00,,,0.00,0.00,VWS V14.01,2013-02-24 11:13:00,
2013-02-24 06:14:00,24.1,20.8,30.04,WNW,298,0.0,0.0,87,0.00,,,0.00,0.00,VWS V14.01,2013-02-24 11:14:00,
2013-02-24 06:15:00,24.1,20.8,30.05,WNW,300,1.0,1.0,87,0.00,,,0.00,0.00,VWS V14.01,2013-02-24 11:15:00,
2013-02-24 06:18:00,24.0,20.7,30.05,WNW,300,0.0,2.0,87,0.00,,,0.00,0.00,VWS V14.01,2013-02-24 11:18:00,
2013-02-24 06:19:00,24.0,20.7,30.05,WNW,300,0.0,0.0,87,0.00,,,0.00,0.00,VWS V14.01,2013-02-24 11:19:00,
2013-02-24 06:20:00,23.9,20.6,30.05,WNW,300,0.0,0.0,87,0.00,,,0.00,0.00,VWS V14.01,2013-02-24 11:20:00,
2013-02-24 06:23:00,23.9,20.6,30.05,WNW,300,0.0,3.0,87,0.00,,,0.00,0.00,VWS V14.01,2013-02-24 11:23:00,
2013-02-24 06:24:00,23.8,20.5,30.05,WNW,300,0.0,1.0,87,0.00,,,0.00,0.00,VWS V14.01,2013-02-24 11:24:00,
2013-02-24 06:26:00,23.8,20.5,30.05,WNW,300,0.0,2.0,87,0.00,,,0.00,0.00,VWS V14.01,2013-02-24 11:26:00,
2013-02-24 06:28:00,23.7,20.4,30.05,WNW,300,0.0,1.0,87,0.00,,,0.00,0.00,VWS V14.01,2013-02-24 11:28:00,
2013-02-24 06:29:00,23.7,20.4,30.05,WNW,300,0.0,0.0,87,0.00,,,0.00,0.00,VWS V14.01,2013-02-24 11:29:00,
2013-02-24 06:31:00,23.7,20.4,30.05,WNW,300,0.0,4.0,87,0.00,,,0.00,0.00,VWS V14.01,2013-02-24 11:31:00,
2013-02-24 06:33:00,23.7,20.4,30.05,WNW,302,0.0,2.0,87,0.00,,,0.00,0.00,VWS V14.01,2013-02-24 11:33:00,
2013-02-24 06:34:00,23.7,20.4,30.05,WNW,302,0.0,1.0,87,0.00,,,0.00,0.00,VWS V14.01,2013-02-24 11:34:00,
2013-02-24 06:36:00,23.6,20.3,30.06,WNW,302,2.0,2.0,87,0.00,,,0.00,0.00,VWS V14.01,2013-02-24 11:36:00,
2013-02-24 06:38:00,23.6,20.3,30.06,WNW,302,0.0,1.0,87,0.00,,,0.00,0.00,VWS V14.01,2013-02-24 11:38:00,
2013-02-24 06:39:00,23.6,20.3,30.06,WNW,302,2.0,3.0,87,0.00,,,0.00,0.00,VWS V14.01,2013-02-24 11:39:00,
2013-02-24 06:41:00,23.5,20.2,30.06,WNW,302,0.0,2.0,87,0.00,,,0.00,0.00,VWS V14.01,2013-02-24 11:41:00,
2013-02-24 06:43:00,23.5,20.5,30.06,WNW,302,0.0,2.0,88,0.00,,,0.00,0.00,VWS V14.01,2013-02-24 11:43:00,
2013-02-24 06:44:00,23.4,20.4,30.06,WNW,302,2.0,2.0,88,0.00,,,0.00,0.00,VWS V14.01,2013-02-24 11:44:00,
2013-02-24 06:46:00,23.4,20.4,30.06,WNW,302,0.0,2.0,88,0.00,,,0.00,0.00,VWS V14.01,2013-02-24 11:46:00,
2013-02-24 06:48:00,23.4,20.4,30.06,WNW,302,0.0,2.0,88,0.00,,,0.00,0.00,VWS V14.01,2013-02-24 11:48:00,
2013-02-24 06:49:00,23.3,20.3,30.06,WNW,302,2.0,3.0,88,0.00,,,0.00,0.00,VWS V14.01,2013-02-24 11:49:00,
2013-02-24 06:51:00,23.3,20.3,30.06,WNW,302,1.0,2.0,88,0.00,,,0.00,0.00,VWS V14.01,2013-02-24 11:51:00,
2013-02-24 06:53:00,23.3,20.3,30.06,WNW,302,0.0,3.0,88,0.00,,,0.00,0.00,VWS V14.01,2013-02-24 11:53:00,
2013-02-24 06:54:00,23.2,20.2,30.06,WNW,302,1.0,2.0,88,0.00,,,0.00,0.00,VWS V14.01,2013-02-24 11:54:00,
2013-02-24 06:56:00,23.2,20.2,30.06,WNW,302,2.0,3.0,88,0.00,,,0.00,0.00,VWS V14.01,2013-02-24 11:56:00,
2013-02-24 06:58:00,23.2,20.2,30.06,WNW,301,0.0,0.0,88,0.00,,,0.00,0.00,VWS V14.01,2013-02-24 11:58:00,
2013-02-24 06:59:00,23.1,20.1,30.06,WNW,301,0.0,0.0,88,0.00,,,0.00,0.00,VWS V14.01,2013-02-24 11:59:00,
2013-02-24 07:01:00,23.1,20.1,30.06,WNW,301,2.0,3.0,88,0.00,,,0.00,0.00,VWS V14.01,2013-02-24 12:01:00,
2013-02-24 07:03:00,23.1,20.1,30.07,WNW,302,1.0,2.0,88,0.00,,,0.00,0.00,VWS V14.01,2013-02-24 12:03:00,
2013-02-24 07:04:00,23.1,20.1,30.07,WNW,302,1.0,3.0,88,0.00,,,0.00,0.00,VWS V14.01,2013-02-24 12:04:00,
2013-02-24 07:06:00,23.0,20.0,30.07,WNW,302,0.0,1.0,88,0.00,,,0.00,0.00,VWS V14.01,2013-02-24 12:06:00,
2013-02-24 07:08:00,23.0,20.0,30.07,WNW,302,0.0,0.0,88,0.00,,,0.00,0.00,VWS V14.01,2013-02-24 12:08:00,
2013-02-24 07:09:00,23.0,20.0,30.07,WNW,302,0.0,0.0,88,0.00,,,0.00,0.00,VWS V14.01,2013-02-24 12:09:00,
2013-02-24 07:10:00,23.0,20.0,30.07,WNW,302,0.0,2.0,88,0.00,,,0.00,0.00,VWS V14.01,2013-02-24 12:10:00,
2013-02-24 07:11:00,23.0,20.0,30.07,WNW,302,2.0,3.0,88,0.00,,,0.00,0.00,VWS V14.01,2013-02-24 12:11:00,
2013-02-24 07:13:00,23.0,20.0,30.07,WNW,302,1.0,1.0,88,0.00,,,0.00,0.00,VWS V14.01,2013-02-24 12:13:00,
2013-02-24 07:14:00,23.0,20.0,30.07,WNW,302,1.0,2.0,88,0.00,,,0.00,0.00,VWS V14.01,2013-02-24 12:14:00,
2013-02-24 07:15:00,22.9,19.9,30.07,WNW,302,0.0,0.0,88,0.00,,,0.00,0.00,VWS V14.01,2013-02-24 12:15:00,
2013-02-24 07:16:00,22.9,19.9,30.07,WNW,302,0.0,1.0,88,0.00,,,0.00,0.00,VWS V14.01,2013-02-24 12:16:00,
2013-02-24 07:18:00,22.9,19.9,30.07,WNW,302,0.0,0.0,88,0.00,,,0.00,0.00,VWS V14.01,2013-02-24 12:18:00,
2013-02-24 07:19:00,22.9,19.9,30.07,WNW,302,0.0,0.0,88,0.00,,,0.00,0.00,VWS V14.01,2013-02-24 12:19:00,
2013-02-24 07:20:00,22.8,20.0,30.08,WNW,302,0.0,0.0,89,0.00,,,0.00,0.00,VWS V14.01,2013-02-24 12:20:00,
2013-02-24 07:21:00,22.8,20.0,30.08,WNW,302,0.0,1.0,89,0.00,,,0.00,0.00,VWS V14.01,2013-02-24 12:21:00,
2013-02-24 07:23:00,22.8,20.0,30.08,WNW,302,0.0,0.0,89,0.00,,,0.00,0.00,VWS V14.01,2013-02-24 12:23:00,
2013-02-24 07:24:00,22.8,20.0,30.08,WNW,302,0.0,0.0,89,0.00,,,0.00,0.00,VWS V14.01,2013-02-24 12:24:00,
2013-02-24 07:25:00,22.7,20.0,30.08,WNW,302,0.0,2.0,89,0.00,,,0.00,0.00,VWS V14.01,2013-02-24 12:25:00,
2013-02-24 07:26:00,22.7,20.0,30.08,WNW,302,1.0,1.0,89,0.00,,,0.00,0.00,VWS V14.01,2013-02-24 12:26:00,
2013-02-24 07:28:00,22.7,20.0,30.08,WNW,302,1.0,3.0,89,0.00,,,0.00,0.00,VWS V14.01,2013-02-24 12:28:00,
2013-02-24 07:29:00,22.7,20.0,30.08,WNW,302,2.0,3.0,89,0.00,,,0.00,0.00,VWS V14.01,2013-02-24 12:29:00,
2013-02-24 07:30:00,22.7,20.0,30.08,WNW,302,0.0,2.0,89,0.00,,,0.00,0.00,VWS V14.01,2013-02-24 12:30:00,
2013-02-24 07:31:00,22.8,20.0,30.08,WNW,302,0.0,0.0,89,0.00,,,0.00,0.00,VWS V14.01,2013-02-24 12:31:00,
2013-02-24 07:33:00,22.7,20.0,30.08,WNW,302,1.0,1.0,89,0.00,,,0.00,0.00,VWS V14.01,2013-02-24 12:33:00,
2013-02-24 07:34:00,22.7,20.0,30.08,WNW,302,0.0,0.0,89,0.00,,,0.00,0.00,VWS V14.01,2013-02-24 12:34:00,
2013-02-24 07:35:00,22.7,20.0,30.08,WNW,302,0.0,0.0,89,0.00,,,0.00,0.00,VWS V14.01,2013-02-24 12:35:00,
2013-02-24 07:36:00,22.7,20.0,30.08,WNW,302,0.0,0.0,89,0.00,,,0.00,0.00,VWS V14.01,2013-02-24 12:36:00,
2013-02-24 07:38:00,22.7,20.0,30.08,WNW,302,0.0,1.0,89,0.00,,,0.00,0.00,VWS V14.01,2013-02-24 12:38:00,
2013-02-24 07:39:00,22.7,20.0,30.08,WNW,302,0.0,0.0,89,0.00,,,0.00,0.00,VWS V14.01,2013-02-24 12:39:00,
2013-02-24 07:40:00,22.8,20.0,30.08,WNW,302,2.0,3.0,89,0.00,,,0.00,0.00,VWS V14.01,2013-02-24 12:40:00,
2013-02-24 07:41:00,22.8,20.0,30.08,WNW,302,0.0,0.0,89,0.00,,,0.00,0.00,VWS V14.01,2013-02-24 12:41:00,
2013-02-24 07:43:00,22.8,20.0,30.08,WNW,302,0.0,0.0,89,0.00,,,0.00,0.00,VWS V14.01,2013-02-24 12:43:00,
2013-02-24 07:44:00,22.8,20.0,30.08,WNW,302,0.0,0.0,89,0.00,,,0.00,0.00,VWS V14.01,2013-02-24 12:44:00,
2013-02-24 07:45:00,22.8,20.0,30.08,WNW,302,0.0,0.0,89,0.00,,,0.00,0.00,VWS V14.01,2013-02-24 12:45:00,
2013-02-24 07:46:00,22.8,20.0,30.08,WNW,302,0.0,0.0,89,0.00,,,0.00,0.00,VWS V14.01,2013-02-24 12:46:00,
2013-02-24 07:48:00,22.8,20.0,30.08,WNW,302,0.0,0.0,89,0.00,,,0.00,0.00,VWS V14.01,2013-02-24 12:48:00,
2013-02-24 07:49:00,22.8,20.0,30.08,WNW,302,0.0,0.0,89,0.00,,,0.00,0.00,VWS V14.01,2013-02-24 12:49:00,
2013-02-24 07:50:00,22.8,20.0,30.08,WNW,302,0.0,0.0,89,0.00,,,0.00,0.00,VWS V14.01,2013-02-24 12:50:00,
2013-02-24 07:52:00,22.8,20.0,30.08,WNW,302,0.0,1.0,89,0.00,,,0.00,0.00,VWS V14.01,2013-02-24 12:52:00,
2013-02-24 07:53:00,22.8,20.0,30.08,WNW,302,1.0,2.0,89,0.00,,,0.00,0.00,VWS V14.01,2013-02-24 12:53:00,
2013-02-24 07:54:00,22.8,20.0,30.08,WNW,302,0.0,0.0,89,0.00,,,0.00,0.00,VWS V14.01,2013-02-24 12:54:00,
2013-02-24 07:56:00,22.8,20.0,30.08,WNW,302,0.0,0.0,89,0.00,,,0.00,0.00,VWS V14.01,2013-02-24 12:56:00,
2013-02-24 07:57:00,22.8,20.0,30.08,WNW,302,0.0,0.0,89,0.00,,,0.00,0.00,VWS V14.01,2013-02-24 12:57:00,
2013-02-24 07:58:00,22.8,20.0,30.08,WNW,302,0.0,0.0,89,0.00,,,0.00,0.00,VWS V14.01,2013-02-24 12:58:00,
2013-02-24 07:59:00,22.8,20.0,30.08,WNW,302,0.0,1.0,89,0.00,,,0.00,0.00,VWS V14.01,2013-02-24 12:59:00,
2013-02-24 08:01:00,22.8,20.0,30.08,WNW,302,0.0,2.0,89,0.00,,,0.00,0.00,VWS V14.01,2013-02-24 13:01:00,
2013-02-24 08:02:00,22.9,20.1,30.09,WNW,302,0.0,0.0,89,0.00,,,0.00,0.00,VWS V14.01,2013-02-24 13:02:00,
2013-02-24 08:03:00,22.9,20.1,30.09,WNW,302,3.0,4.0,89,0.00,,,0.00,0.00,VWS V14.01,2013-02-24 13:03:00,
2013-02-24 08:04:00,22.9,20.1,30.09,WNW,302,2.0,3.0,89,0.00,,,0.00,0.00,VWS V14.01,2013-02-24 13:04:00,
2013-02-24 08:06:00,22.9,20.1,30.09,WNW,302,0.0,2.0,89,0.00,,,0.00,0.00,VWS V14.01,2013-02-24 13:06:00,
2013-02-24 08:07:00,23.0,20.2,30.09,WNW,302,2.0,2.0,89,0.00,,,0.00,0.00,VWS V14.01,2013-02-24 13:07:00,
2013-02-24 08:08:00,23.0,20.2,30.09,WNW,302,0.0,0.0,89,0.00,,,0.00,0.00,VWS V14.01,2013-02-24 13:08:00,
2013-02-24 08:09:00,23.1,20.4,30.09,WNW,303,0.0,4.0,89,0.00,,,0.00,0.00,VWS V14.01,2013-02-24 13:09:00,
2013-02-24 08:11:00,23.1,20.4,30.09,WNW,303,1.0,2.0,89,0.00,,,0.00,0.00,VWS V14.01,2013-02-24 13:11:00,
2013-02-24 08:12:00,23.1,20.4,30.09,WNW,303,1.0,2.0,89,0.00,,,0.00,0.00,VWS V14.01,2013-02-24 13:12:00,
2013-02-24 08:13:00,23.2,20.5,30.09,WNW,303,0.0,1.0,89,0.00,,,0.00,0.00,VWS V14.01,2013-02-24 13:13:00,
2013-02-24 08:14:00,23.2,20.5,30.09,WNW,303,1.0,3.0,89,0.00,,,0.00,0.00,VWS V14.01,2013-02-24 13:14:00,
2013-02-24 08:16:00,23.3,20.5,30.09,WNW,303,1.0,2.0,89,0.00,,,0.00,0.00,VWS V14.01,2013-02-24 13:16:00,
2013-02-24 08:17:00,23.3,20.5,30.09,WNW,303,0.0,2.0,89,0.00,,,0.00,0.00,VWS V14.01,2013-02-24 13:17:00,
2013-02-24 08:18:00,23.3,20.5,30.09,WNW,303,0.0,0.0,89,0.00,,,0.00,0.00,VWS V14.01,2013-02-24 13:18:00,
2013-02-24 08:20:00,23.4,20.6,30.09,WNW,303,0.0,2.0,89,0.00,,,0.00,0.00,VWS V14.01,2013-02-24 13:20:00,
2013-02-24 08:21:00,23.4,20.6,30.09,WNW,303,0.0,1.0,89,0.00,,,0.00,0.00,VWS V14.01,2013-02-24 13:21:00,
2013-02-24 08:22:00,23.5,20.7,30.09,WNW,303,0.0,0.0,89,0.00,,,0.00,0.00,VWS V14.01,2013-02-24 13:22:00,
2013-02-24 08:23:00,23.5,20.5,30.10,NW,323,0.0,1.0,88,0.00,,,0.00,0.00,VWS V14.01,2013-02-24 13:23:00,
2013-02-24 08:25:00,23.6,20.6,30.10,NW,323,2.0,3.0,88,0.00,,,0.00,0.00,VWS V14.01,2013-02-24 13:25:00,
2013-02-24 08:26:00,23.6,20.6,30.10,NW,323,2.0,3.0,88,0.00,,,0.00,0.00,VWS V14.01,2013-02-24 13:26:00,
2013-02-24 08:27:00,23.6,20.6,30.10,NW,323,1.0,3.0,88,0.00,,,0.00,0.00,VWS V14.01,2013-02-24 13:27:00,
2013-02-24 08:29:00,23.7,20.7,30.10,NW,323,0.0,3.0,88,0.00,,,0.00,0.00,VWS V14.01,2013-02-24 13:29:00,
2013-02-24 08:30:00,23.8,20.8,30.10,NW,323,0.0,1.0,88,0.00,,,0.00,0.00,VWS V14.01,2013-02-24 13:30:00,
2013-02-24 08:31:00,23.8,20.8,30.10,NW,323,0.0,0.0,88,0.00,,,0.00,0.00,VWS V14.01,2013-02-24 13:31:00,
2013-02-24 08:32:00,23.9,20.9,30.10,NW,323,1.0,1.0,88,0.00,,,0.00,0.00,VWS V14.01,2013-02-24 13:32:00,
2013-02-24 08:34:00,24.0,21.0,30.10,NW,323,3.0,4.0,88,0.00,,,0.00,0.00,VWS V14.01,2013-02-24 13:34:00,
2013-02-24 08:35:00,24.1,21.1,30.10,NW,323,2.0,2.0,88,0.00,,,0.00,0.00,VWS V14.01,2013-02-24 13:35:00,
2013-02-24 08:36:00,24.1,21.1,30.10,NNW,331,3.0,5.0,88,0.00,,,0.00,0.00,VWS V14.01,2013-02-24 13:36:00,
2013-02-24 08:37:00,24.1,20.8,30.10,NNW,344,5.0,6.0,87,0.00,,,0.00,0.00,VWS V14.01,2013-02-24 13:37:00,
2013-02-24 08:39:00,24.1,20.8,30.10,NNW,346,6.0,6.0,87,0.00,,,0.00,0.00,VWS V14.01,2013-02-24 13:39:00,
2013-02-24 08:40:00,24.1,20.8,30.10,North,355,1.0,3.0,87,0.00,,,0.00,0.00,VWS V14.01,2013-02-24 13:40:00,
2013-02-24 08:41:00,24.2,20.9,30.10,North,355,2.0,2.0,87,0.00,,,0.00,0.00,VWS V14.01,2013-02-24 13:41:00,
2013-02-24 08:42:00,24.2,20.9,30.10,North,355,0.0,3.0,87,0.00,,,0.00,0.00,VWS V14.01,2013-02-24 13:42:00,
2013-02-24 08:44:00,24.2,20.9,30.10,North,355,3.0,4.0,87,0.00,,,0.00,0.00,VWS V14.01,2013-02-24 13:44:00,
2013-02-24 08:45:00,24.3,21.0,30.10,North,355,0.0,1.0,87,0.00,,,0.00,0.00,VWS V14.01,2013-02-24 13:45:00,
2013-02-24 08:46:00,24.3,21.0,30.10,North,355,1.0,1.0,87,0.00,,,0.00,0.00,VWS V14.01,2013-02-24 13:46:00,
2013-02-24 08:47:00,24.4,21.1,30.10,North,355,2.0,3.0,87,0.00,,,0.00,0.00,VWS V14.01,2013-02-24 13:47:00,
2013-02-24 08:49:00,24.5,21.2,30.10,North,360,1.0,3.0,87,0.00,,,0.00,0.00,VWS V14.01,2013-02-24 13:49:00,
2013-02-24 08:50:00,24.5,20.9,30.10,North,355,3.0,4.0,86,0.00,,,0.00,0.00,VWS V14.01,2013-02-24 13:50:00,
2013-02-24 08:51:00,24.5,20.9,30.10,North,355,4.0,5.0,86,0.00,,,0.00,0.00,VWS V14.01,2013-02-24 13:51:00,
2013-02-24 08:52:00,24.5,20.9,30.10,North,355,4.0,5.0,86,0.00,,,0.00,0.00,VWS V14.01,2013-02-24 13:52:00,
2013-02-24 08:54:00,24.7,21.1,30.10,North,355,3.0,3.0,86,0.00,,,0.00,0.00,VWS V14.01,2013-02-24 13:54:00,
2013-02-24 08:55:00,24.8,21.2,30.10,North,355,0.0,0.0,86,0.00,,,0.00,0.00,VWS V14.01,2013-02-24 13:55:00,
2013-02-24 08:56:00,24.8,21.2,30.10,North,355,0.0,2.0,86,0.00,,,0.00,0.00,VWS V14.01,2013-02-24 13:56:00,
2013-02-24 08:57:00,24.9,21.3,30.10,North,355,1.0,1.0,86,0.00,,,0.00,0.00,VWS V14.01,2013-02-24 13:57:00,
2013-02-24 08:59:00,25.0,21.4,30.10,North,355,2.0,4.0,86,0.00,,,0.00,0.00,VWS V14.01,2013-02-24 13:59:00,
2013-02-24 09:00:00,25.1,21.5,30.09,North,355,4.0,4.0,86,0.00,,,0.00,0.00,VWS V14.01,2013-02-24 14:00:00,
2013-02-24 09:01:00,25.2,21.3,30.10,North,355,0.0,1.0,85,0.00,,,0.00,0.00,VWS V14.01,2013-02-24 14:01:00,
2013-02-24 09:02:00,25.2,21.3,30.09,North,355,0.0,0.0,85,0.00,,,0.00,0.00,VWS V14.01,2013-02-24 14:02:00,
2013-02-24 09:04:00,25.2,21.3,30.09,North,355,0.0,4.0,85,0.00,,,0.00,0.00,VWS V14.01,2013-02-24 14:04:00,
2013-02-24 09:05:00,25.3,21.4,30.10,North,355,3.0,5.0,85,0.00,,,0.00,0.00,VWS V14.01,2013-02-24 14:05:00,
2013-02-24 09:07:00,25.3,21.1,30.10,North,350,4.0,5.0,84,0.00,,,0.00,0.00,VWS V14.01,2013-02-24 14:07:00,
2013-02-24 09:09:00,25.4,21.5,30.10,North,355,4.0,4.0,85,0.00,,,0.00,0.00,VWS V14.01,2013-02-24 14:09:00,
2013-02-24 09:10:00,25.5,21.6,30.10,North,355,1.0,2.0,85,0.00,,,0.00,0.00,VWS V14.01,2013-02-24 14:10:00,
2013-02-24 09:12:00,25.6,21.5,30.10,North,355,4.0,6.0,84,0.00,,,0.00,0.00,VWS V14.01,2013-02-24 14:12:00,
2013-02-24 09:14:00,25.7,21.3,30.10,NNW,342,2.0,4.0,83,0.00,,,0.00,0.00,VWS V14.01,2013-02-24 14:14:00,
2013-02-24 09:15:00,25.8,21.4,30.10,North,360,4.0,7.0,83,0.00,,,0.00,0.00,VWS V14.01,2013-02-24 14:15:00,
2013-02-24 09:17:00,25.9,21.5,30.10,NNW,344,4.0,8.0,83,0.00,,,0.00,0.00,VWS V14.01,2013-02-24 14:17:00,
2013-02-24 09:19:00,26.0,21.6,30.11,North,355,6.0,6.0,83,0.00,,,0.00,0.00,VWS V14.01,2013-02-24 14:19:00,
2013-02-24 09:21:00,26.0,21.6,30.11,North,355,2.0,4.0,83,0.00,,,0.00,0.00,VWS V14.01,2013-02-24 14:21:00,
2013-02-24 09:22:00,26.1,21.6,30.11,North,355,0.0,4.0,83,0.00,,,0.00,0.00,VWS V14.01,2013-02-24 14:22:00,
2013-02-24 09:24:00,26.2,21.8,30.11,NW,325,7.0,8.0,83,0.00,,,0.00,0.00,VWS V14.01,2013-02-24 14:24:00,
2013-02-24 09:26:00,26.3,21.6,30.11,NNW,344,5.0,7.0,82,0.00,,,0.00,0.00,VWS V14.01,2013-02-24 14:26:00,
2013-02-24 09:27:00,26.3,21.6,30.11,North,349,2.0,6.0,82,0.00,,,0.00,0.00,VWS V14.01,2013-02-24 14:27:00,
2013-02-24 09:29:00,26.4,21.7,30.11,North,349,2.0,2.0,82,0.00,,,0.00,0.00,VWS V14.01,2013-02-24 14:29:00,
2013-02-24 09:31:00,26.5,21.8,30.11,NNW,340,3.0,7.0,82,0.00,,,0.00,0.00,VWS V14.01,2013-02-24 14:31:00,
2013-02-24 09:32:00,26.5,21.8,30.11,NNW,338,4.0,4.0,82,0.00,,,0.00,0.00,VWS V14.01,2013-02-24 14:32:00,
2013-02-24 09:34:00,26.7,22.0,30.11,North,360,0.0,1.0,82,0.00,,,0.00,0.00,VWS V14.01,2013-02-24 14:34:00,
2013-02-24 09:36:00,26.7,22.0,30.11,North,355,2.0,4.0,82,0.00,,,0.00,0.00,VWS V14.01,2013-02-24 14:36:00,
2013-02-24 09:37:00,26.8,22.0,30.11,NW,326,4.0,4.0,82,0.00,,,0.00,0.00,VWS V14.01,2013-02-24 14:37:00,
2013-02-24 09:38:00,26.9,22.1,30.11,NW,326,5.0,5.0,82,0.00,,,0.00,0.00,VWS V14.01,2013-02-24 14:38:00,
2013-02-24 09:39:00,27.0,22.2,30.11,NNW,344,3.0,5.0,82,0.00,,,0.00,0.00,VWS V14.01,2013-02-24 14:39:00,
2013-02-24 09:41:00,27.2,22.1,30.12,NNW,343,8.0,8.0,81,0.00,,,0.00,0.00,VWS V14.01,2013-02-24 14:41:00,
2013-02-24 09:42:00,27.2,22.1,30.12,NNW,348,6.0,8.0,81,0.00,,,0.00,0.00,VWS V14.01,2013-02-24 14:42:00,
2013-02-24 09:43:00,27.1,21.8,30.12,North,350,3.0,7.0,80,0.00,,,0.00,0.00,VWS V14.01,2013-02-24 14:43:00,
2013-02-24 09:45:00,27.2,22.1,30.12,NNW,346,3.0,5.0,81,0.00,,,0.00,0.00,VWS V14.01,2013-02-24 14:45:00,
2013-02-24 09:46:00,27.3,22.0,30.12,NNW,342,2.0,6.0,80,0.00,,,0.00,0.00,VWS V14.01,2013-02-24 14:46:00,
2013-02-24 09:47:00,27.3,22.0,30.12,NNW,342,2.0,3.0,80,0.00,,,0.00,0.00,VWS V14.01,2013-02-24 14:47:00,
2013-02-24 09:48:00,27.3,22.2,30.12,NNW,344,3.0,4.0,81,0.00,,,0.00,0.00,VWS V14.01,2013-02-24 14:48:00,
2013-02-24 09:50:00,27.4,22.0,30.12,NNW,346,0.0,4.0,80,0.00,,,0.00,0.00,VWS V14.01,2013-02-24 14:50:00,
2013-02-24 09:51:00,27.5,22.5,30.12,NNW,344,4.0,6.0,81,0.00,,,0.00,0.00,VWS V14.01,2013-02-24 14:51:00,
2013-02-24 09:52:00,27.5,22.1,30.12,North,355,3.0,9.0,80,0.00,,,0.00,0.00,VWS V14.01,2013-02-24 14:52:00,
2013-02-24 09:53:00,27.5,22.1,30.12,North,355,3.0,9.0,80,0.00,,,0.00,0.00,VWS V14.01,2013-02-24 14:53:00,
2013-02-24 09:55:00,27.6,22.2,30.12,North,355,6.0,7.0,80,0.00,,,0.00,0.00,VWS V14.01,2013-02-24 14:55:00,
2013-02-24 09:57:00,27.6,22.2,30.12,North,355,2.0,5.0,80,0.00,,,0.00,0.00,VWS V14.01,2013-02-24 14:57:00,
2013-02-24 09:58:00,27.7,22.4,30.12,North,350,2.0,3.0,80,0.00,,,0.00,0.00,VWS V14.01,2013-02-24 14:58:00,
2013-02-24 10:00:00,27.9,22.5,30.12,North,350,3.0,6.0,80,0.00,,,0.00,0.00,VWS V14.01,2013-02-24 15:00:00,
2013-02-24 10:02:00,28.0,22.3,30.12,NNW,338,2.0,8.0,79,0.00,,,0.00,0.00,VWS V14.01,2013-02-24 15:02:00,
2013-02-24 10:03:00,28.0,22.3,30.12,NNW,338,4.0,5.0,79,0.00,,,0.00,0.00,VWS V14.01,2013-02-24 15:03:00,
2013-02-24 10:05:00,28.1,22.4,30.13,North,350,3.0,6.0,79,0.00,,,0.00,0.00,VWS V14.01,2013-02-24 15:05:00,
2013-02-24 10:07:00,28.3,22.6,30.13,North,349,0.0,5.0,79,0.00,,,0.00,0.00,VWS V14.01,2013-02-24 15:07:00,
2013-02-24 10:08:00,28.3,22.6,30.13,North,349,1.0,2.0,79,0.00,,,0.00,0.00,VWS V14.01,2013-02-24 15:08:00,
2013-02-24 10:10:00,28.4,22.7,30.13,NNW,331,4.0,4.0,79,0.00,,,0.00,0.00,VWS V14.01,2013-02-24 15:10:00,
2013-02-24 10:12:00,28.5,22.5,30.13,NNE,20,4.0,6.0,78,0.00,,,0.00,0.00,VWS V14.01,2013-02-24 15:12:00,
2013-02-24 10:13:00,28.5,22.5,30.12,NNE,24,3.0,6.0,78,0.00,,,0.00,0.00,VWS V14.01,2013-02-24 15:13:00,
2013-02-24 10:15:00,28.6,22.6,30.12,North,360,2.0,3.0,78,0.00,,,0.00,0.00,VWS V14.01,2013-02-24 15:15:00,
2013-02-24 10:17:00,28.8,22.8,30.12,North,360,4.0,4.0,78,0.00,,,0.00,0.00,VWS V14.01,2013-02-24 15:17:00,
2013-02-24 10:18:00,28.8,23.1,30.12,North,360,2.0,4.0,79,0.00,,,0.00,0.00,VWS V14.01,2013-02-24 15:18:00,
2013-02-24 10:20:00,28.9,22.6,30.12,NNW,340,2.0,8.0,77,0.00,,,0.00,0.00,VWS V14.01,2013-02-24 15:20:00,
2013-02-24 10:22:00,28.9,22.6,30.12,North,9,4.0,5.0,77,0.00,,,0.00,0.00,VWS V14.01,2013-02-24 15:22:00,
2013-02-24 10:23:00,28.9,22.6,30.12,North,355,3.0,6.0,77,0.00,,,0.00,0.00,VWS V14.01,2013-02-24 15:23:00,
2013-02-24 10:25:00,29.0,22.7,30.12,North,350,1.0,5.0,77,0.00,,,0.00,0.00,VWS V14.01,2013-02-24 15:25:00,
2013-02-24 10:27:00,29.2,23.2,30.12,North,351,2.0,5.0,78,0.00,,,0.00,0.00,VWS V14.01,2013-02-24 15:27:00,
2013-02-24 10:28:00,29.2,23.2,30.12,North,351,2.0,2.0,78,0.00,,,0.00,0.00,VWS V14.01,2013-02-24 15:28:00,
2013-02-24 10:30:00,29.4,23.4,30.12,WNW,296,2.0,6.0,78,0.00,,,0.00,0.00,VWS V14.01,2013-02-24 15:30:00,
2013-02-24 10:32:00,29.4,23.1,30.12,NNW,342,6.0,7.0,77,0.00,,,0.00,0.00,VWS V14.01,2013-02-24 15:32:00,
2013-02-24 10:33:00,29.4,23.1,30.13,NNW,342,2.0,4.0,77,0.00,,,0.00,0.00,VWS V14.01,2013-02-24 15:33:00,
2013-02-24 10:35:00,29.6,23.3,30.12,NNW,342,2.0,3.0,77,0.00,,,0.00,0.00,VWS V14.01,2013-02-24 15:35:00,
2013-02-24 10:37:00,29.6,23.0,30.12,NW,321,4.0,6.0,76,0.00,,,0.00,0.00,VWS V14.01,2013-02-24 15:37:00,
2013-02-24 10:38:00,29.6,23.0,30.12,NW,317,4.0,4.0,76,0.00,,,0.00,0.00,VWS V14.01,2013-02-24 15:38:00,
2013-02-24 10:40:00,29.6,23.3,30.13,North,5,9.0,9.0,77,0.00,,,0.00,0.00,VWS V14.01,2013-02-24 15:40:00,
2013-02-24 10:42:00,29.6,23.0,30.13,NNW,343,2.0,4.0,76,0.00,,,0.00,0.00,VWS V14.01,2013-02-24 15:42:00,
2013-02-24 10:43:00,29.6,23.3,30.13,NNW,343,2.0,3.0,77,0.00,,,0.00,0.00,VWS V14.01,2013-02-24 15:43:00,
2013-02-24 10:44:00,29.7,23.4,30.13,NW,309,5.0,7.0,77,0.00,,,0.00,0.00,VWS V14.01,2013-02-24 15:44:00,
2013-02-24 10:45:00,29.7,23.4,30.13,NNW,329,7.0,7.0,77,0.00,,,0.00,0.00,VWS V14.01,2013-02-24 15:45:00,
2013-02-24 10:47:00,29.8,23.2,30.13,NNW,328,2.0,4.0,76,0.00,,,0.00,0.00,VWS V14.01,2013-02-24 15:47:00,
2013-02-24 10:48:00,29.8,23.5,30.13,NW,319,4.0,7.0,77,0.00,,,0.00,0.00,VWS V14.01,2013-02-24 15:48:00,
2013-02-24 10:49:00,29.8,23.2,30.13,NW,312,3.0,3.0,76,0.00,,,0.00,0.00,VWS V14.01,2013-02-24 15:49:00,
2013-02-24 10:50:00,29.8,23.2,30.13,NW,312,4.0,4.0,76,0.00,,,0.00,0.00,VWS V14.01,2013-02-24 15:50:00,
2013-02-24 10:52:00,29.9,23.3,30.13,NNW,346,3.0,4.0,76,0.00,,,0.00,0.00,VWS V14.01,2013-02-24 15:52:00,
2013-02-24 10:53:00,29.9,23.0,30.13,North,351,4.0,6.0,75,0.00,,,0.00,0.00,VWS V14.01,2013-02-24 15:53:00,
2013-02-24 10:54:00,30.0,23.0,30.13,NW,312,4.0,4.0,75,0.00,,,0.00,0.00,VWS V14.01,2013-02-24 15:54:00,
2013-02-24 10:55:00,30.1,23.1,30.13,NNW,346,7.0,8.0,75,0.00,,,0.00,0.00,VWS V14.01,2013-02-24 15:55:00,
2013-02-24 10:57:00,30.1,23.5,30.13,NNW,346,2.0,3.0,76,0.00,,,0.00,0.00,VWS V14.01,2013-02-24 15:57:00,
2013-02-24 10:58:00,30.1,23.5,30.13,North,355,8.0,8.0,76,0.00,,,0.00,0.00,VWS V14.01,2013-02-24 15:58:00,
2013-02-24 10:59:00,30.1,22.8,30.13,NNE,25,2.0,7.0,74,0.00,,,0.00,0.00,VWS V14.01,2013-02-24 15:59:00,
2013-02-24 11:00:00,30.1,23.1,30.13,NNE,24,2.0,3.0,75,0.00,,,0.00,0.00,VWS V14.01,2013-02-24 16:00:00,
2013-02-24 11:02:00,30.1,23.1,30.13,North,355,5.0,5.0,75,0.00,,,0.00,0.00,VWS V14.01,2013-02-24 16:02:00,
2013-02-24 11:03:00,30.2,22.9,30.13,North,9,4.0,6.0,74,0.00,,,0.00,0.00,VWS V14.01,2013-02-24 16:03:00,
2013-02-24 11:04:00,30.2,22.9,30.13,North,5,3.0,5.0,74,0.00,,,0.00,0.00,VWS V14.01,2013-02-24 16:04:00,
2013-02-24 11:05:00,30.2,22.9,30.13,North,355,5.0,6.0,74,0.00,,,0.00,0.00,VWS V14.01,2013-02-24 16:05:00,
2013-02-24 11:07:00,30.3,23.3,30.13,North,355,4.0,4.0,75,0.00,,,0.00,0.00,VWS V14.01,2013-02-24 16:07:00,
2013-02-24 11:08:00,30.5,23.5,30.13,North,351,4.0,4.0,75,0.00,,,0.00,0.00,VWS V14.01,2013-02-24 16:08:00,
2013-02-24 11:09:00,30.6,23.3,30.13,North,350,3.0,4.0,74,0.00,,,0.00,0.00,VWS V14.01,2013-02-24 16:09:00,
2013-02-24 11:10:00,30.6,23.3,30.13,NNW,333,5.0,6.0,74,0.00,,,0.00,0.00,VWS V14.01,2013-02-24 16:10:00,
2013-02-24 11:12:00,30.7,23.4,30.13,North,5,2.0,4.0,74,0.00,,,0.00,0.00,VWS V14.01,2013-02-24 16:12:00,
2013-02-24 11:13:00,30.7,23.4,30.13,North,355,5.0,5.0,74,0.00,,,0.00,0.00,VWS V14.01,2013-02-24 16:13:00,
2013-02-24 11:15:00,30.7,23.7,30.13,NW,325,4.0,4.0,75,0.00,,,0.00,0.00,VWS V14.01,2013-02-24 16:15:00,
2013-02-24 11:17:00,30.8,23.8,30.13,NNW,342,3.0,3.0,75,0.00,,,0.00,0.00,VWS V14.01,2013-02-24 16:17:00,
2013-02-24 11:18:00,30.8,23.5,30.13,NNW,344,7.0,7.0,74,0.00,,,0.00,0.00,VWS V14.01,2013-02-24 16:18:00,
2013-02-24 11:20:00,30.8,23.2,30.13,North,355,3.0,5.0,73,0.00,,,0.00,0.00,VWS V14.01,2013-02-24 16:20:00,
2013-02-24 11:22:00,30.9,23.3,30.13,North,355,3.0,6.0,73,0.00,,,0.00,0.00,VWS V14.01,2013-02-24 16:22:00,
2013-02-24 11:23:00,30.9,23.6,30.13,North,355,8.0,8.0,74,0.00,,,0.00,0.00,VWS V14.01,2013-02-24 16:23:00,
2013-02-24 11:25:00,30.9,23.3,30.13,North,360,2.0,3.0,73,0.00,,,0.00,0.00,VWS V14.01,2013-02-24 16:25:00,
2013-02-24 11:27:00,31.0,23.7,30.13,North,355,2.0,5.0,74,0.00,,,0.00,0.00,VWS V14.01,2013-02-24 16:27:00,
2013-02-24 11:28:00,31.0,23.4,30.13,NNW,344,3.0,5.0,73,0.00,,,0.00,0.00,VWS V14.01,2013-02-24 16:28:00,
2013-02-24 11:30:00,31.1,23.5,30.13,NW,322,3.0,4.0,73,0.00,,,0.00,0.00,VWS V14.01,2013-02-24 16:30:00,
2013-02-24 11:32:00,31.4,23.8,30.13,NW,325,3.0,3.0,73,0.00,,,0.00,0.00,VWS V14.01,2013-02-24 16:32:00,
2013-02-24 11:33:00,31.4,23.8,30.13,NW,325,2.0,4.0,73,0.00,,,0.00,0.00,VWS V14.01,2013-02-24 16:33:00,
2013-02-24 11:35:00,31.5,23.9,30.13,NW,325,1.0,2.0,73,0.00,,,0.00,0.00,VWS V14.01,2013-02-24 16:35:00,
2013-02-24 11:37:00,31.5,23.5,30.13,WNW,300,4.0,6.0,72,0.00,,,0.00,0.00,VWS V14.01,2013-02-24 16:37:00,
2013-02-24 11:39:00,31.6,24.0,30.13,NW,309,5.0,5.0,73,0.00,,,0.00,0.00,VWS V14.01,2013-02-24 16:39:00,
2013-02-24 11:40:00,31.6,23.6,30.13,NNW,346,2.0,3.0,72,0.00,,,0.00,0.00,VWS V14.01,2013-02-24 16:40:00,
2013-02-24 11:43:00,31.7,23.7,30.13,NNW,346,5.0,5.0,72,0.00,,,0.00,0.00,VWS V14.01,2013-02-24 16:43:00,
2013-02-24 11:44:00,31.9,23.6,30.13,NNW,346,2.0,4.0,71,0.00,,,0.00,0.00,VWS V14.01,2013-02-24 16:44:00,
2013-02-24 11:45:00,31.9,23.6,30.13,NNW,348,3.0,6.0,71,0.00,,,0.00,0.00,VWS V14.01,2013-02-24 16:45:00,
2013-02-24 11:48:00,31.7,22.4,30.13,NNW,348,4.0,6.0,68,0.00,,,0.00,0.00,VWS V14.01,2013-02-24 16:48:00,
2013-02-24 11:49:00,31.7,23.0,30.13,NNW,348,3.0,6.0,70,0.00,,,0.00,0.00,VWS V14.01,2013-02-24 16:49:00,
2013-02-24 11:50:00,31.7,23.0,30.13,NNW,342,2.0,4.0,70,0.00,,,0.00,0.00,VWS V14.01,2013-02-24 16:50:00,
2013-02-24 11:53:00,31.7,23.4,30.13,NNW,337,1.0,4.0,71,0.00,,,0.00,0.00,VWS V14.01,2013-02-24 16:53:00,
2013-02-24 11:54:00,31.7,23.0,30.13,NNW,348,2.0,5.0,70,0.00,,,0.00,0.00,VWS V14.01,2013-02-24 16:54:00,
2013-02-24 11:55:00,31.9,23.9,30.13,North,355,2.0,3.0,72,0.00,,,0.00,0.00,VWS V14.01,2013-02-24 16:55:00,
2013-02-24 11:58:00,32.0,23.0,30.13,North,355,3.0,7.0,69,0.00,,,0.00,0.00,VWS V14.01,2013-02-24 16:58:00,
2013-02-24 11:59:00,32.0,23.0,30.13,NNW,348,6.0,7.0,69,0.00,,,0.00,0.00,VWS V14.01,2013-02-24 16:59:00,
2013-02-24 12:00:00,32.1,23.1,30.13,NNW,347,4.0,6.0,69,0.00,,,0.00,0.00,VWS V14.01,2013-02-24 17:00:00,
2013-02-24 12:03:00,32.1,23.1,30.13,North,355,3.0,4.0,69,0.00,,,0.00,0.00,VWS V14.01,2013-02-24 17:03:00,
2013-02-24 12:04:00,32.1,22.8,30.13,North,355,2.0,3.0,68,0.00,,,0.00,0.00,VWS V14.01,2013-02-24 17:04:00,
2013-02-24 12:05:00,32.2,23.2,30.13,North,355,3.0,3.0,69,0.00,,,0.00,0.00,VWS V14.01,2013-02-24 17:05:00,
2013-02-24 12:08:00,32.2,22.8,30.13,North,350,4.0,8.0,68,0.00,,,0.00,0.00,VWS V14.01,2013-02-24 17:08:00,
2013-02-24 12:09:00,32.3,23.3,30.14,NNW,347,4.0,5.0,69,0.00,,,0.00,0.00,VWS V14.01,2013-02-24 17:09:00,
2013-02-24 12:10:00,32.3,23.3,30.14,NNW,346,3.0,5.0,69,0.00,,,0.00,0.00,VWS V14.01,2013-02-24 17:10:00,
2013-02-24 12:13:00,32.5,23.1,30.14,North,355,6.0,8.0,68,0.00,,,0.00,0.00,VWS V14.01,2013-02-24 17:13:00,
2013-02-24 12:14:00,32.6,23.2,30.13,North,355,2.0,3.0,68,0.00,,,0.00,0.00,VWS V14.01,2013-02-24 17:14:00,
2013-02-24 12:15:00,32.6,23.6,30.13,North,360,4.0,4.0,69,0.00,,,0.00,0.00,VWS V14.01,2013-02-24 17:15:00,
2013-02-24 12:18:00,33.0,23.6,30.13,North,355,2.0,5.0,68,0.00,,,0.00,0.00,VWS V14.01,2013-02-24 17:18:00,
2013-02-24 12:19:00,33.2,23.8,30.14,North,355,0.0,2.0,68,0.00,,,0.00,0.00,VWS V14.01,2013-02-24 17:19:00,
2013-02-24 12:20:00,33.2,23.5,30.14,North,355,2.0,2.0,67,0.00,,,0.00,0.00,VWS V14.01,2013-02-24 17:20:00,
2013-02-24 12:23:00,33.3,22.8,30.14,WNW,290,2.0,2.0,65,0.00,,,0.00,0.00,VWS V14.01,2013-02-24 17:23:00,
2013-02-24 12:24:00,33.2,22.7,30.14,NNW,339,2.0,4.0,65,0.00,,,0.00,0.00,VWS V14.01,2013-02-24 17:24:00,
2013-02-24 12:25:00,33.1,22.6,30.14,NNW,339,0.0,4.0,65,0.00,,,0.00,0.00,VWS V14.01,2013-02-24 17:25:00,
2013-02-24 12:28:00,32.7,22.2,30.14,NNW,328,2.0,4.0,65,0.00,,,0.00,0.00,VWS V14.01,2013-02-24 17:28:00,
2013-02-24 12:29:00,32.7,22.6,30.14,NNW,337,4.0,6.0,66,0.00,,,0.00,0.00,VWS V14.01,2013-02-24 17:29:00,
2013-02-24 12:30:00,32.7,22.2,30.14,NNW,340,5.0,7.0,65,0.00,,,0.00,0.00,VWS V14.01,2013-02-24 17:30:00,
2013-02-24 12:33:00,32.8,23.4,30.14,NNW,348,3.0,5.0,68,0.00,,,0.00,0.00,VWS V14.01,2013-02-24 17:33:00,
2013-02-24 12:34:00,32.7,23.0,30.14,NNW,348,0.0,0.0,67,0.00,,,0.00,0.00,VWS V14.01,2013-02-24 17:34:00,
2013-02-24 12:35:00,32.8,23.1,30.14,NNW,348,4.0,4.0,67,0.00,,,0.00,0.00,VWS V14.01,2013-02-24 17:35:00,
2013-02-24 12:38:00,32.8,22.3,30.14,North,5,4.0,6.0,65,0.00,,,0.00,0.00,VWS V14.01,2013-02-24 17:38:00,
2013-02-24 12:39:00,33.0,22.9,30.14,North,355,2.0,5.0,66,0.00,,,0.00,0.00,VWS V14.01,2013-02-24 17:39:00,
2013-02-24 12:40:00,33.0,22.5,30.14,NNW,343,5.0,5.0,65,0.00,,,0.00,0.00,VWS V14.01,2013-02-24 17:40:00,
2013-02-24 12:41:00,33.0,22.5,30.14,NNW,344,2.0,5.0,65,0.00,,,0.00,0.00,VWS V14.01,2013-02-24 17:41:00,
2013-02-24 12:43:00,33.1,23.4,30.14,NW,311,2.0,3.0,67,0.00,,,0.00,0.00,VWS V14.01,2013-02-24 17:43:00,
2013-02-24 12:44:00,33.1,23.4,30.13,NW,313,0.0,2.0,67,0.00,,,0.00,0.00,VWS V14.01,2013-02-24 17:44:00,
2013-02-24 12:45:00,33.1,23.4,30.13,NW,313,1.0,2.0,67,0.00,,,0.00,0.00,VWS V14.01,2013-02-24 17:45:00,
2013-02-24 12:49:00,33.4,24.0,30.13,WNW,286,4.0,6.0,68,0.00,,,0.00,0.00,VWS V14.01,2013-02-24 17:49:00,
2013-02-24 12:50:00,33.6,24.2,30.13,NW,325,3.0,4.0,68,0.00,,,0.00,0.00,VWS V14.01,2013-02-24 17:50:00,
2013-02-24 12:51:00,33.7,24.3,30.13,NW,325,0.0,3.0,68,0.00,,,0.00,0.00,VWS V14.01,2013-02-24 17:51:00,
2013-02-24 12:54:00,34.0,24.2,30.13,NNW,332,3.0,4.0,67,0.00,,,0.00,0.00,VWS V14.01,2013-02-24 17:54:00,
2013-02-24 12:55:00,34.0,23.9,30.13,WNW,290,3.0,9.0,66,0.00,,,0.00,0.00,VWS V14.01,2013-02-24 17:55:00,
2013-02-24 12:56:00,34.0,24.2,30.13,North,360,7.0,8.0,67,0.00,,,0.00,0.00,VWS V14.01,2013-02-24 17:56:00,
2013-02-24 12:59:00,33.9,23.4,30.13,NNW,346,5.0,6.0,65,0.00,,,0.00,0.00,VWS V14.01,2013-02-24 17:59:00,
2013-02-24 13:00:00,33.9,23.8,30.13,NNW,348,8.0,9.0,66,0.00,,,0.00,0.00,VWS V14.01,2013-02-24 18:00:00,
2013-02-24 13:01:00,33.8,23.7,30.13,NW,305,5.0,5.0,66,0.00,,,0.00,0.00,VWS V14.01,2013-02-24 18:01:00,
2013-02-24 13:04:00,33.8,24.4,30.13,WNW,299,1.0,6.0,68,0.00,,,0.00,0.00,VWS V14.01,2013-02-24 18:04:00,
2013-02-24 13:05:00,33.8,24.4,30.13,NW,314,1.0,3.0,68,0.00,,,0.00,0.00,VWS V14.01,2013-02-24 18:05:00,
2013-02-24 13:06:00,33.9,24.5,30.13,North,350,3.0,7.0,68,0.00,,,0.00,0.00,VWS V14.01,2013-02-24 18:06:00,
2013-02-24 13:09:00,34.2,25.1,30.13,NNW,348,2.0,4.0,69,0.00,,,0.00,0.00,VWS V14.01,2013-02-24 18:09:00,
2013-02-24 13:10:00,34.3,24.5,30.13,North,5,3.0,8.0,67,0.00,,,0.00,0.00,VWS V14.01,2013-02-24 18:10:00,
2013-02-24 13:11:00,34.3,24.1,30.13,North,360,1.0,4.0,66,0.00,,,0.00,0.00,VWS V14.01,2013-02-24 18:11:00,
2013-02-24 13:14:00,34.3,24.1,30.13,NNW,332,0.0,3.0,66,0.00,,,0.00,0.00,VWS V14.01,2013-02-24 18:14:00,
2013-02-24 13:15:00,34.3,24.1,30.13,North,9,3.0,7.0,66,0.00,,,0.00,0.00,VWS V14.01,2013-02-24 18:15:00,
2013-02-24 13:16:00,34.4,24.2,30.13,NNE,13,3.0,8.0,66,0.00,,,0.00,0.00,VWS V14.01,2013-02-24 18:16:00,
2013-02-24 13:19:00,34.5,24.3,30.13,NNE,19,2.0,3.0,66,0.00,,,0.00,0.00,VWS V14.01,2013-02-24 18:19:00,
2013-02-24 13:20:00,34.6,24.4,30.13,North,355,2.0,5.0,66,0.00,,,0.00,0.00,VWS V14.01,2013-02-24 18:20:00,
2013-02-24 13:21:00,34.6,24.1,30.13,North,355,1.0,3.0,65,0.00,,,0.00,0.00,VWS V14.01,2013-02-24 18:21:00,
2013-02-24 13:24:00,34.8,24.6,30.13,North,350,6.0,6.0,66,0.00,,,0.00,0.00,VWS V14.01,2013-02-24 18:24:00,
2013-02-24 13:25:00,34.8,24.6,30.13,North,355,2.0,7.0,66,0.00,,,0.00,0.00,VWS V14.01,2013-02-24 18:25:00,
2013-02-24 13:26:00,34.9,24.7,30.13,NE,36,6.0,6.0,66,0.00,,,0.00,0.00,VWS V14.01,2013-02-24 18:26:00,
2013-02-24 13:29:00,35.0,24.4,30.13,NNW,346,3.0,6.0,65,0.00,,,0.00,0.00,VWS V14.01,2013-02-24 18:29:00,
2013-02-24 13:30:00,35.0,24.4,30.13,NNE,17,0.0,4.0,65,0.00,,,0.00,0.00,VWS V14.01,2013-02-24 18:30:00,
2013-02-24 13:31:00,35.0,24.4,30.13,NW,317,4.0,4.0,65,0.00,,,0.00,0.00,VWS V14.01,2013-02-24 18:31:00,
2013-02-24 13:34:00,34.8,24.2,30.13,WNW,295,1.0,3.0,65,0.00,,,0.00,0.00,VWS V14.01,2013-02-24 18:34:00,
2013-02-24 13:35:00,34.8,25.0,30.13,WNW,296,4.0,4.0,67,0.00,,,0.00,0.00,VWS V14.01,2013-02-24 18:35:00,
2013-02-24 13:36:00,34.9,25.4,30.13,WNW,296,2.0,4.0,68,0.00,,,0.00,0.00,VWS V14.01,2013-02-24 18:36:00,
2013-02-24 13:39:00,35.1,26.0,30.13,WNW,301,0.0,3.0,69,0.00,,,0.00,0.00,VWS V14.01,2013-02-24 18:39:00,
2013-02-24 13:40:00,35.2,25.7,30.12,NW,310,2.0,2.0,68,0.00,,,0.00,0.00,VWS V14.01,2013-02-24 18:40:00,
2013-02-24 13:41:00,35.4,26.3,30.12,North,355,6.0,9.0,69,0.00,,,0.00,0.00,VWS V14.01,2013-02-24 18:41:00,
2013-02-24 13:44:00,35.2,24.3,30.12,NNW,345,2.0,8.0,64,0.01,,,0.01,0.00,VWS V14.01,2013-02-24 18:44:00,
2013-02-24 13:45:00,35.0,24.8,30.13,NNE,17,3.0,3.0,66,0.01,,,0.01,0.00,VWS V14.01,2013-02-24 18:45:00,
2013-02-24 13:46:00,35.0,24.8,30.13,NNE,16,2.0,3.0,66,0.01,,,0.01,0.00,VWS V14.01,2013-02-24 18:46:00,
2013-02-24 13:49:00,35.1,24.9,30.13,North,360,4.0,7.0,66,0.01,,,0.01,0.00,VWS V14.01,2013-02-24 18:49:00,
2013-02-24 13:50:00,35.1,24.5,30.12,North,349,6.0,6.0,65,0.01,,,0.01,0.00,VWS V14.01,2013-02-24 18:50:00,
2013-02-24 13:51:00,35.1,24.5,30.12,North,349,6.0,6.0,65,0.01,,,0.01,0.00,VWS V14.01,2013-02-24 18:51:00,
2013-02-24 13:54:00,35.3,25.1,30.12,North,5,3.0,4.0,66,0.01,,,0.01,0.00,VWS V14.01,2013-02-24 18:54:00,
2013-02-24 13:55:00,35.5,24.9,30.12,North,5,4.0,5.0,65,0.01,,,0.01,0.00,VWS V14.01,2013-02-24 18:55:00,
2013-02-24 13:56:00,35.5,24.9,30.12,North,5,3.0,5.0,65,0.01,,,0.01,0.00,VWS V14.01,2013-02-24 18:56:00,
2013-02-24 13:59:00,35.7,24.7,30.12,ENE,59,0.0,7.0,64,0.01,,,0.01,0.00,VWS V14.01,2013-02-24 18:59:00,
2013-02-24 14:00:00,35.9,25.3,30.12,ENE,59,2.0,2.0,65,0.01,,,0.01,0.00,VWS V14.01,2013-02-24 19:00:00,
2013-02-24 14:01:00,35.9,25.3,30.12,NE,48,5.0,6.0,65,0.01,,,0.01,0.00,VWS V14.01,2013-02-24 19:01:00,
2013-02-24 14:04:00,36.0,25.0,30.12,NNW,345,2.0,3.0,64,0.01,,,0.01,0.00,VWS V14.01,2013-02-24 19:04:00,
2013-02-24 14:05:00,36.1,25.5,30.12,NNW,344,1.0,3.0,65,0.01,,,0.01,0.00,VWS V14.01,2013-02-24 19:05:00,
2013-02-24 14:06:00,36.1,25.5,30.12,NNW,343,2.0,3.0,65,0.01,,,0.01,0.00,VWS V14.01,2013-02-24 19:06:00,
2013-02-24 14:09:00,36.1,25.5,30.12,NNW,346,2.0,3.0,65,0.01,,,0.01,0.00,VWS V14.01,2013-02-24 19:09:00,
2013-02-24 14:11:00,36.0,24.6,30.12,NNW,330,6.0,6.0,63,0.01,,,0.01,0.00,VWS V14.01,2013-02-24 19:11:00,
2013-02-24 14:14:00,35.9,24.5,30.12,North,9,3.0,3.0,63,0.01,,,0.01,0.00,VWS V14.01,2013-02-24 19:14:00,
2013-02-24 14:16:00,35.9,24.5,30.12,North,355,1.0,3.0,63,0.01,,,0.01,0.00,VWS V14.01,2013-02-24 19:16:00,
2013-02-24 14:19:00,36.0,25.0,30.12,NNE,33,2.0,3.0,64,0.01,,,0.01,0.00,VWS V14.01,2013-02-24 19:19:00,
2013-02-24 14:21:00,36.1,25.1,30.12,NNE,33,1.0,2.0,64,0.01,,,0.01,0.00,VWS V14.01,2013-02-24 19:21:00,
2013-02-24 14:24:00,36.3,25.3,30.12,North,355,2.0,3.0,64,0.01,,,0.01,0.00,VWS V14.01,2013-02-24 19:24:00,
2013-02-24 14:26:00,36.3,24.9,30.12,NNW,338,5.0,5.0,63,0.01,,,0.01,0.00,VWS V14.01,2013-02-24 19:26:00,
2013-02-24 14:29:00,36.0,25.0,30.12,NW,315,3.0,3.0,64,0.01,,,0.01,0.00,VWS V14.01,2013-02-24 19:29:00,
2013-02-24 14:31:00,35.9,24.9,30.12,North,5,2.0,7.0,64,0.01,,,0.01,0.00,VWS V14.01,2013-02-24 19:31:00,
2013-02-24 14:34:00,36.1,24.7,30.11,West,280,6.0,7.0,63,0.01,,,0.01,0.00,VWS V14.01,2013-02-24 19:34:00,
2013-02-24 14:36:00,35.9,24.2,30.11,North,360,3.0,8.0,62,0.01,,,0.01,0.00,VWS V14.01,2013-02-24 19:36:00,
2013-02-24 14:39:00,35.9,24.5,30.12,NW,323,3.0,3.0,63,0.01,,,0.01,0.00,VWS V14.01,2013-02-24 19:39:00,
2013-02-24 14:41:00,36.0,25.0,30.12,NW,323,1.0,1.0,64,0.01,,,0.01,0.00,VWS V14.01,2013-02-24 19:41:00,
2013-02-24 14:44:00,36.3,25.3,30.12,NW,317,1.0,1.0,64,0.00,,,0.01,0.00,VWS V14.01,2013-02-24 19:44:00,
2013-02-24 14:46:00,36.4,25.8,30.12,NNW,342,3.0,6.0,65,0.00,,,0.01,0.00,VWS V14.01,2013-02-24 19:46:00,
2013-02-24 14:49:00,36.4,25.0,30.12,NNW,329,4.0,5.0,63,0.00,,,0.01,0.00,VWS V14.01,2013-02-24 19:49:00,
2013-02-24 14:51:00,36.2,24.5,30.12,NNW,348,1.0,2.0,62,0.00,,,0.01,0.00,VWS V14.01,2013-02-24 19:51:00,
2013-02-24 14:54:00,36.2,24.8,30.12,NNW,334,3.0,4.0,63,0.00,,,0.01,0.00,VWS V14.01,2013-02-24 19:54:00,
2013-02-24 14:56:00,36.2,24.8,30.12,NNW,339,1.0,3.0,63,0.00,,,0.01,0.00,VWS V14.01,2013-02-24 19:56:00,
2013-02-24 14:59:00,36.5,25.1,30.11,North,350,5.0,8.0,63,0.00,,,0.01,0.00,VWS V14.01,2013-02-24 19:59:00,
2013-02-24 15:01:00,36.5,24.3,30.11,North,350,0.0,0.0,61,0.00,,,0.01,0.00,VWS V14.01,2013-02-24 20:01:00,
2013-02-24 15:04:00,36.8,25.4,30.11,NNW,338,3.0,5.0,63,0.00,,,0.01,0.00,VWS V14.01,2013-02-24 20:04:00,
2013-02-24 15:06:00,36.8,25.0,30.11,North,350,3.0,3.0,62,0.00,,,0.01,0.00,VWS V14.01,2013-02-24 20:06:00,
2013-02-24 15:09:00,36.8,25.4,30.12,NE,43,4.0,5.0,63,0.00,,,0.01,0.00,VWS V14.01,2013-02-24 20:09:00,
2013-02-24 15:11:00,37.0,25.6,30.11,NE,37,1.0,2.0,63,0.00,,,0.01,0.00,VWS V14.01,2013-02-24 20:11:00,
2013-02-24 15:14:00,37.2,26.2,30.12,North,5,1.0,2.0,64,0.00,,,0.01,0.00,VWS V14.01,2013-02-24 20:14:00,
2013-02-24 15:16:00,37.3,25.5,30.12,North,360,0.0,1.0,62,0.00,,,0.01,0.00,VWS V14.01,2013-02-24 20:16:00,
2013-02-24 15:19:00,37.3,25.1,30.12,North,11,1.0,2.0,61,0.00,,,0.01,0.00,VWS V14.01,2013-02-24 20:19:00,
2013-02-24 15:21:00,37.3,25.9,30.12,North,9,0.0,2.0,63,0.00,,,0.01,0.00,VWS V14.01,2013-02-24 20:21:00,
2013-02-24 15:25:00,37.5,26.5,30.12,NNW,329,1.0,4.0,64,0.00,,,0.01,0.00,VWS V14.01,2013-02-24 20:25:00,
2013-02-24 15:26:00,37.4,26.0,30.12,NNW,329,4.0,4.0,63,0.00,,,0.01,0.00,VWS V14.01,2013-02-24 20:26:00,
2013-02-24 15:30:00,37.3,26.6,30.12,NNW,329,3.0,4.0,65,0.00,,,0.01,0.00,VWS V14.01,2013-02-24 20:30:00,
2013-02-24 15:31:00,37.4,26.4,30.12,North,5,4.0,4.0,64,0.00,,,0.01,0.00,VWS V14.01,2013-02-24 20:31:00,
2013-02-24 15:35:00,37.3,25.9,30.12,North,11,1.0,3.0,63,0.00,,,0.01,0.00,VWS V14.01,2013-02-24 20:35:00,
2013-02-24 15:36:00,37.4,26.0,30.12,North,11,0.0,0.0,63,0.00,,,0.01,0.00,VWS V14.01,2013-02-24 20:36:00,
2013-02-24 15:37:00,37.4,26.0,30.12,North,11,0.0,0.0,63,0.00,,,0.01,0.00,VWS V14.01,2013-02-24 20:37:00,
2013-02-24 15:40:00,37.6,26.2,30.12,NNW,345,6.0,7.0,63,0.00,,,0.01,0.00,VWS V14.01,2013-02-24 20:40:00,
2013-02-24 15:41:00,37.5,26.1,30.12,NNE,32,2.0,6.0,63,0.00,,,0.01,0.00,VWS V14.01,2013-02-24 20:41:00,
2013-02-24 15:42:00,37.5,26.1,30.12,NNE,31,1.0,6.0,63,0.00,,,0.01,0.00,VWS V14.01,2013-02-24 20:42:00,
2013-02-24 15:45:00,37.2,25.8,30.12,North,355,3.0,8.0,63,0.00,,,0.01,0.00,VWS V14.01,2013-02-24 20:45:00,
2013-02-24 15:46:00,37.1,25.7,30.12,North,355,0.0,4.0,63,0.00,,,0.01,0.00,VWS V14.01,2013-02-24 20:46:00,
2013-02-24 15:47:00,37.1,25.7,30.12,North,355,4.0,5.0,63,0.00,,,0.01,0.00,VWS V14.01,2013-02-24 20:47:00,
2013-02-24 15:50:00,37.0,25.2,30.12,NW,309,3.0,4.0,62,0.00,,,0.01,0.00,VWS V14.01,2013-02-24 20:50:00,
2013-02-24 15:51:00,36.9,25.5,30.12,NW,311,4.0,4.0,63,0.00,,,0.01,0.00,VWS V14.01,2013-02-24 20:51:00,
2013-02-24 15:52:00,36.9,25.5,30.12,NW,312,2.0,4.0,63,0.00,,,0.01,0.00,VWS V14.01,2013-02-24 20:52:00,
2013-02-24 15:55:00,36.8,25.8,30.12,NW,312,1.0,1.0,64,0.00,,,0.01,0.00,VWS V14.01,2013-02-24 20:55:00,
2013-02-24 15:56:00,36.9,25.5,30.12,NW,312,0.0,2.0,63,0.00,,,0.01,0.00,VWS V14.01,2013-02-24 20:56:00,
2013-02-24 15:57:00,37.0,25.6,30.12,NW,312,1.0,2.0,63,0.00,,,0.01,0.00,VWS V14.01,2013-02-24 20:57:00,
2013-02-24 16:00:00,37.0,25.2,30.12,WNW,298,3.0,3.0,62,0.00,,,0.01,0.00,VWS V14.01,2013-02-24 21:00:00,
2013-02-24 16:01:00,37.0,25.6,30.12,WNW,298,3.0,3.0,63,0.00,,,0.01,0.00,VWS V14.01,2013-02-24 21:01:00,
2013-02-24 16:02:00,37.0,25.6,30.12,WNW,298,3.0,3.0,63,0.00,,,0.01,0.00,VWS V14.01,2013-02-24 21:02:00,
2013-02-24 16:05:00,37.0,24.8,30.12,NNW,332,2.0,4.0,61,0.00,,,0.01,0.00,VWS V14.01,2013-02-24 21:05:00,
2013-02-24 16:06:00,37.0,25.2,30.12,NNW,332,4.0,4.0,62,0.00,,,0.01,0.00,VWS V14.01,2013-02-24 21:06:00,
2013-02-24 16:07:00,37.0,25.6,30.12,NNW,348,6.0,7.0,63,0.00,,,0.01,0.00,VWS V14.01,2013-02-24 21:07:00,
2013-02-24 16:10:00,36.9,25.1,30.12,NNW,347,2.0,2.0,62,0.00,,,0.01,0.00,VWS V14.01,2013-02-24 21:10:00,
2013-02-24 16:11:00,36.9,25.5,30.12,NNW,338,3.0,4.0,63,0.00,,,0.01,0.00,VWS V14.01,2013-02-24 21:11:00,
2013-02-24 16:12:00,36.9,25.5,30.12,NNW,338,2.0,4.0,63,0.00,,,0.01,0.00,VWS V14.01,2013-02-24 21:12:00,
2013-02-24 16:15:00,37.1,26.1,30.12,NNW,348,1.0,2.0,64,0.00,,,0.01,0.00,VWS V14.01,2013-02-24 21:15:00,
2013-02-24 16:17:00,37.2,26.2,30.13,NNW,344,3.0,5.0,64,0.00,,,0.01,0.00,VWS V14.01,2013-02-24 21:17:00,
2013-02-24 16:20:00,37.1,25.7,30.13,NW,325,3.0,3.0,63,0.00,,,0.01,0.00,VWS V14.01,2013-02-24 21:20:00,
2013-02-24 16:22:00,37.1,25.7,30.13,NNW,327,1.0,2.0,63,0.00,,,0.01,0.00,VWS V14.01,2013-02-24 21:22:00,
2013-02-24 16:25:00,37.3,26.3,30.13,NNW,327,0.0,1.0,64,0.00,,,0.01,0.00,VWS V14.01,2013-02-24 21:25:00,
2013-02-24 16:27:00,37.4,26.4,30.13,NW,325,0.0,3.0,64,0.00,,,0.01,0.00,VWS V14.01,2013-02-24 21:27:00,
2013-02-24 16:30:00,37.4,26.0,30.13,NW,315,3.0,3.0,63,0.00,,,0.01,0.00,VWS V14.01,2013-02-24 21:30:00,
2013-02-24 16:32:00,37.3,25.9,30.13,NW,315,0.0,1.0,63,0.00,,,0.01,0.00,VWS V14.01,2013-02-24 21:32:00,
2013-02-24 16:35:00,37.4,26.4,30.13,NW,319,3.0,4.0,64,0.00,,,0.01,0.00,VWS V14.01,2013-02-24 21:35:00,
2013-02-24 16:37:00,37.4,26.0,30.13,NW,319,2.0,2.0,63,0.00,,,0.01,0.00,VWS V14.01,2013-02-24 21:37:00,
2013-02-24 16:40:00,37.3,25.1,30.13,West,281,4.0,4.0,61,0.00,,,0.01,0.00,VWS V14.01,2013-02-24 21:40:00,
2013-02-24 16:42:00,37.2,25.4,30.13,WNW,284,1.0,3.0,62,0.00,,,0.01,0.00,VWS V14.01,2013-02-24 21:42:00,
2013-02-24 16:45:00,37.0,25.6,30.13,WNW,285,0.0,3.0,63,0.00,,,0.01,0.00,VWS V14.01,2013-02-24 21:45:00,
2013-02-24 16:47:00,36.9,25.1,30.13,WNW,285,0.0,2.0,62,0.00,,,0.01,0.00,VWS V14.01,2013-02-24 21:47:00,
2013-02-24 16:51:00,37.0,25.6,30.13,NW,315,3.0,4.0,63,0.00,,,0.01,0.00,VWS V14.01,2013-02-24 21:51:00,
2013-02-24 16:52:00,37.0,25.2,30.13,NW,317,2.0,4.0,62,0.00,,,0.01,0.00,VWS V14.01,2013-02-24 21:52:00,
2013-02-24 16:56:00,37.0,25.2,30.13,NW,325,2.0,2.0,62,0.00,,,0.01,0.00,VWS V14.01,2013-02-24 21:56:00,
2013-02-24 16:57:00,37.0,25.2,30.13,NNW,328,3.0,3.0,62,0.00,,,0.01,0.00,VWS V14.01,2013-02-24 21:57:00,
2013-02-24 16:58:00,37.0,25.2,30.13,NNW,329,3.0,4.0,62,0.00,,,0.01,0.00,VWS V14.01,2013-02-24 21:58:00,
2013-02-24 17:01:00,36.9,25.5,30.13,NNW,329,0.0,2.0,63,0.00,,,0.01,0.00,VWS V14.01,2013-02-24 22:01:00,
2013-02-24 17:02:00,36.9,25.5,30.13,NNW,329,0.0,0.0,63,0.00,,,0.01,0.00,VWS V14.01,2013-02-24 22:02:00,
2013-02-24 17:03:00,36.9,25.5,30.13,NNW,329,0.0,0.0,63,0.00,,,0.01,0.00,VWS V14.01,2013-02-24 22:03:00,
2013-02-24 17:06:00,36.9,25.1,30.13,NNW,329,2.0,2.0,62,0.00,,,0.01,0.00,VWS V14.01,2013-02-24 22:06:00,
2013-02-24 17:07:00,36.8,25.0,30.13,NNW,329,0.0,0.0,62,0.00,,,0.01,0.00,VWS V14.01,2013-02-24 22:07:00,
2013-02-24 17:08:00,36.8,25.0,30.13,NNW,329,0.0,1.0,62,0.00,,,0.01,0.00,VWS V14.01,2013-02-24 22:08:00,
2013-02-24 17:11:00,36.8,25.8,30.13,NNW,331,0.0,3.0,64,0.00,,,0.01,0.00,VWS V14.01,2013-02-24 22:11:00,
2013-02-24 17:12:00,36.8,25.8,30.13,NNW,331,0.0,0.0,64,0.00,,,0.01,0.00,VWS V14.01,2013-02-24 22:12:00,
2013-02-24 17:13:00,36.8,25.8,30.13,NNW,331,1.0,3.0,64,0.00,,,0.01,0.00,VWS V14.01,2013-02-24 22:13:00,
2013-02-24 17:16:00,36.8,25.4,30.13,NNW,331,0.0,2.0,63,0.00,,,0.01,0.00,VWS V14.01,2013-02-24 22:16:00,
2013-02-24 17:17:00,36.8,25.4,30.13,NNW,331,0.0,0.0,63,0.00,,,0.01,0.00,VWS V14.01,2013-02-24 22:17:00,
2013-02-24 17:18:00,36.8,25.4,30.13,NNW,331,0.0,0.0,63,0.00,,,0.01,0.00,VWS V14.01,2013-02-24 22:18:00,
2013-02-24 17:21:00,36.6,25.2,30.13,NNW,331,0.0,1.0,63,0.00,,,0.01,0.00,VWS V14.01,2013-02-24 22:21:00,
2013-02-24 17:22:00,36.6,24.8,30.13,NNW,331,0.0,0.0,62,0.00,,,0.01,0.00,VWS V14.01,2013-02-24 22:22:00,
2013-02-24 17:23:00,36.6,25.2,30.13,NNW,331,0.0,0.0,63,0.00,,,0.01,0.00,VWS V14.01,2013-02-24 22:23:00,
2013-02-24 17:26:00,36.5,25.1,30.13,NNW,331,0.0,0.0,63,0.00,,,0.01,0.00,VWS V14.01,2013-02-24 22:26:00,
2013-02-24 17:27:00,36.4,25.0,30.13,NNW,331,0.0,0.0,63,0.00,,,0.01,0.00,VWS V14.01,2013-02-24 22:27:00,
2013-02-24 17:28:00,36.4,25.0,30.13,NNW,331,0.0,0.0,63,0.00,,,0.01,0.00,VWS V14.01,2013-02-24 22:28:00,
2013-02-24 17:31:00,36.3,24.9,30.13,NNW,331,0.0,0.0,63,0.00,,,0.01,0.00,VWS V14.01,2013-02-24 22:31:00,
2013-02-24 17:32:00,36.3,25.3,30.13,NNW,331,2.0,3.0,64,0.00,,,0.01,0.00,VWS V14.01,2013-02-24 22:32:00,
2013-02-24 17:33:00,36.3,25.3,30.13,NNW,331,0.0,3.0,64,0.00,,,0.01,0.00,VWS V14.01,2013-02-24 22:33:00,
2013-02-24 17:36:00,36.2,25.2,30.13,NNW,331,3.0,4.0,64,0.00,,,0.01,0.00,VWS V14.01,2013-02-24 22:36:00,
2013-02-24 17:37:00,36.2,24.8,30.13,NNW,331,0.0,1.0,63,0.00,,,0.01,0.00,VWS V14.01,2013-02-24 22:37:00,
2013-02-24 17:38:00,36.1,24.7,30.13,NNW,331,0.0,1.0,63,0.00,,,0.01,0.00,VWS V14.01,2013-02-24 22:38:00,
2013-02-24 17:41:00,36.0,24.6,30.13,NNW,331,0.0,0.0,63,0.00,,,0.01,0.00,VWS V14.01,2013-02-24 22:41:00,
2013-02-24 17:42:00,36.0,25.4,30.13,NNW,331,0.0,0.0,65,0.00,,,0.01,0.00,VWS V14.01,2013-02-24 22:42:00,
2013-02-24 17:43:00,36.0,25.4,30.13,NNW,331,0.0,1.0,65,0.00,,,0.01,0.00,VWS V14.01,2013-02-24 22:43:00,
2013-02-24 17:46:00,35.9,25.3,30.13,NNW,331,0.0,0.0,65,0.00,,,0.01,0.00,VWS V14.01,2013-02-24 22:46:00,
2013-02-24 17:47:00,35.8,25.2,30.14,NNW,331,0.0,1.0,65,0.00,,,0.01,0.00,VWS V14.01,2013-02-24 22:47:00,
2013-02-24 17:48:00,35.8,25.2,30.14,NNW,331,0.0,1.0,65,0.00,,,0.01,0.00,VWS V14.01,2013-02-24 22:48:00,
2013-02-24 17:51:00,35.7,25.5,30.14,NNW,331,0.0,1.0,66,0.00,,,0.01,0.00,VWS V14.01,2013-02-24 22:51:00,
2013-02-24 17:52:00,35.7,25.5,30.14,NNW,331,0.0,1.0,66,0.00,,,0.01,0.00,VWS V14.01,2013-02-24 22:52:00,
2013-02-24 17:53:00,35.7,25.5,30.14,NNW,331,0.0,1.0,66,0.00,,,0.01,0.00,VWS V14.01,2013-02-24 22:53:00,
2013-02-24 17:56:00,35.6,25.4,30.13,NNW,331,2.0,2.0,66,0.00,,,0.01,0.00,VWS V14.01,2013-02-24 22:56:00,
2013-02-24 17:57:00,35.5,25.3,30.13,NNW,331,0.0,1.0,66,0.00,,,0.01,0.00,VWS V14.01,2013-02-24 22:57:00,
2013-02-24 17:58:00,35.5,25.3,30.13,NNW,331,0.0,1.0,66,0.00,,,0.01,0.00,VWS V14.01,2013-02-24 22:58:00,
2013-02-24 18:01:00,35.4,25.5,30.13,NNW,331,0.0,0.0,67,0.00,,,0.01,0.00,VWS V14.01,2013-02-24 23:01:00,
2013-02-24 18:02:00,35.5,25.6,30.13,NNW,331,0.0,0.0,67,0.00,,,0.01,0.00,VWS V14.01,2013-02-24 23:02:00,
2013-02-24 18:03:00,35.4,25.5,30.13,NNW,331,0.0,0.0,67,0.00,,,0.01,0.00,VWS V14.01,2013-02-24 23:03:00,
2013-02-24 18:06:00,35.5,25.3,30.13,NNW,331,0.0,0.0,66,0.00,,,0.01,0.00,VWS V14.01,2013-02-24 23:06:00,
2013-02-24 18:07:00,35.4,25.2,30.13,NNW,331,0.0,0.0,66,0.00,,,0.01,0.00,VWS V14.01,2013-02-24 23:07:00,
2013-02-24 18:08:00,35.4,25.5,30.13,NNW,331,1.0,1.0,67,0.00,,,0.01,0.00,VWS V14.01,2013-02-24 23:08:00,
2013-02-24 18:11:00,35.3,25.5,30.13,NNW,331,0.0,0.0,67,0.00,,,0.01,0.00,VWS V14.01,2013-02-24 23:11:00,
2013-02-24 18:12:00,35.2,25.4,30.14,NNW,331,0.0,0.0,67,0.00,,,0.01,0.00,VWS V14.01,2013-02-24 23:12:00,
2013-02-24 18:13:00,35.2,25.7,30.14,NNW,331,0.0,0.0,68,0.00,,,0.01,0.00,VWS V14.01,2013-02-24 23:13:00,
2013-02-24 18:17:00,35.1,25.6,30.14,NNW,331,1.0,3.0,68,0.00,,,0.01,0.00,VWS V14.01,2013-02-24 23:17:00,
2013-02-24 18:18:00,35.0,25.5,30.14,NNW,331,0.0,0.0,68,0.00,,,0.01,0.00,VWS V14.01,2013-02-24 23:18:00,
2013-02-24 18:19:00,34.9,25.4,30.14,NNW,331,0.0,1.0,68,0.00,,,0.01,0.00,VWS V14.01,2013-02-24 23:19:00,
2013-02-24 18:22:00,34.8,25.3,30.13,NNW,331,0.0,1.0,68,0.00,,,0.01,0.00,VWS V14.01,2013-02-24 23:22:00,
2013-02-24 18:23:00,34.7,25.6,30.13,NNW,331,0.0,0.0,69,0.00,,,0.01,0.00,VWS V14.01,2013-02-24 23:23:00,
2013-02-24 18:24:00,34.7,25.6,30.13,NNW,331,0.0,0.0,69,0.00,,,0.01,0.00,VWS V14.01,2013-02-24 23:24:00,
2013-02-24 18:27:00,34.6,25.5,30.14,NNW,331,0.0,0.0,69,0.00,,,0.01,0.00,VWS V14.01,2013-02-24 23:27:00,
2013-02-24 18:28:00,34.5,25.4,30.14,NNW,331,0.0,1.0,69,0.00,,,0.01,0.00,VWS V14.01,2013-02-24 23:28:00,
2013-02-24 18:29:00,34.5,25.4,30.14,NNW,331,0.0,1.0,69,0.00,,,0.01,0.00,VWS V14.01,2013-02-24 23:29:00,
2013-02-24 18:32:00,34.3,25.5,30.14,NNW,331,1.0,1.0,70,0.00,,,0.01,0.00,VWS V14.01,2013-02-24 23:32:00,
2013-02-24 18:33:00,34.3,25.5,30.14,NNW,331,1.0,2.0,70,0.00,,,0.01,0.00,VWS V14.01,2013-02-24 23:33:00,
2013-02-24 18:34:00,34.3,25.5,30.14,NNW,331,0.0,0.0,70,0.00,,,0.01,0.00,VWS V14.01,2013-02-24 23:34:00,
2013-02-24 18:37:00,34.1,25.7,30.14,NNW,331,0.0,0.0,71,0.00,,,0.01,0.00,VWS V14.01,2013-02-24 23:37:00,
2013-02-24 18:38:00,34.1,25.7,30.14,NNW,331,0.0,0.0,71,0.00,,,0.01,0.00,VWS V14.01,2013-02-24 23:38:00,
2013-02-24 18:39:00,34.0,25.6,30.14,NNW,331,0.0,0.0,71,0.00,,,0.01,0.00,VWS V14.01,2013-02-24 23:39:00,
2013-02-24 18:42:00,33.9,25.5,30.14,NNW,331,0.0,0.0,71,0.00,,,0.01,0.00,VWS V14.01,2013-02-24 23:42:00,
2013-02-24 18:43:00,33.9,25.5,30.14,NNW,331,0.0,0.0,71,0.00,,,0.01,0.00,VWS V14.01,2013-02-24 23:43:00,
2013-02-24 18:44:00,33.8,25.4,30.14,NNW,331,0.0,0.0,71,0.00,,,0.01,0.00,VWS V14.01,2013-02-24 23:44:00,
2013-02-24 18:47:00,33.8,25.7,30.14,NNW,331,0.0,0.0,72,0.00,,,0.01,0.00,VWS V14.01,2013-02-24 23:47:00,
2013-02-24 18:48:00,33.7,25.6,30.14,NNW,331,0.0,0.0,72,0.00,,,0.01,0.00,VWS V14.01,2013-02-24 23:48:00,
2013-02-24 18:49:00,33.7,25.6,30.14,NNW,331,0.0,0.0,72,0.00,,,0.01,0.00,VWS V14.01,2013-02-24 23:49:00,
2013-02-24 18:52:00,33.6,25.5,30.14,NNW,331,0.0,0.0,72,0.00,,,0.01,0.00,VWS V14.01,2013-02-24 23:52:00,
2013-02-24 18:53:00,33.5,25.5,30.14,NNW,331,0.0,0.0,72,0.00,,,0.01,0.00,VWS V14.01,2013-02-24 23:53:00,
2013-02-24 18:54:00,33.5,25.8,30.14,NNW,331,0.0,0.0,73,0.00,,,0.01,0.00,VWS V14.01,2013-02-24 23:54:00,
2013-02-24 18:57:00,33.4,25.7,30.14,NNW,331,0.0,0.0,73,0.00,,,0.01,0.00,VWS V14.01,2013-02-24 23:57:00,
2013-02-24 18:58:00,33.3,25.6,30.14,NNW,331,0.0,0.0,73,0.00,,,0.01,0.00,VWS V14.01,2013-02-24 23:58:00,
2013-02-24 18:59:00,33.3,25.6,30.14,NNW,331,0.0,0.0,73,0.00,,,0.01,0.00,VWS V14.01,2013-02-24 23:59:00,
2013-02-24 19:02:00,33.2,25.5,30.14,NNW,331,0.0,0.0,73,0.00,,,0.01,0.00,VWS V14.01,2013-02-25 00:02:00,
2013-02-24 19:03:00,33.1,25.4,30.14,NNW,331,0.0,0.0,73,0.00,,,0.01,0.00,VWS V14.01,2013-02-25 00:03:00,
2013-02-24 19:04:00,33.0,25.3,30.14,NNW,331,0.0,0.0,73,0.00,,,0.01,0.00,VWS V14.01,2013-02-25 00:04:00,
2013-02-24 19:07:00,32.9,25.5,30.14,NNW,331,0.0,0.0,74,0.00,,,0.01,0.00,VWS V14.01,2013-02-25 00:07:00,
2013-02-24 19:08:00,32.9,25.5,30.14,NNW,331,0.0,0.0,74,0.00,,,0.01,0.00,VWS V14.01,2013-02-25 00:08:00,
2013-02-24 19:09:00,32.9,25.5,30.14,NNW,331,0.0,0.0,74,0.00,,,0.01,0.00,VWS V14.01,2013-02-25 00:09:00,
2013-02-24 19:12:00,32.7,25.3,30.15,NNW,331,0.0,0.0,74,0.00,,,0.01,0.00,VWS V14.01,2013-02-25 00:12:00,
2013-02-24 19:13:00,32.6,25.2,30.15,NNW,331,0.0,0.0,74,0.00,,,0.01,0.00,VWS V14.01,2013-02-25 00:13:00,
2013-02-24 19:14:00,32.6,25.2,30.15,NNW,331,0.0,0.0,74,0.00,,,0.01,0.00,VWS V14.01,2013-02-25 00:14:00,
2013-02-24 19:17:00,32.4,25.4,30.15,NNW,331,0.0,0.0,75,0.00,,,0.01,0.00,VWS V14.01,2013-02-25 00:17:00,
2013-02-24 19:18:00,32.3,25.3,30.15,NNW,331,0.0,0.0,75,0.00,,,0.01,0.00,VWS V14.01,2013-02-25 00:18:00,
2013-02-24 19:19:00,32.2,25.2,30.15,NNW,331,0.0,0.0,75,0.00,,,0.01,0.00,VWS V14.01,2013-02-25 00:19:00,
2013-02-24 19:22:00,32.0,25.3,30.15,NNW,331,0.0,0.0,76,0.00,,,0.01,0.00,VWS V14.01,2013-02-25 00:22:00,
2013-02-24 19:23:00,31.9,25.2,30.15,NNW,331,0.0,0.0,76,0.00,,,0.01,0.00,VWS V14.01,2013-02-25 00:23:00,
2013-02-24 19:24:00,31.9,25.2,30.15,NNW,331,0.0,0.0,76,0.00,,,0.01,0.00,VWS V14.01,2013-02-25 00:24:00,
2013-02-24 19:27:00,31.7,25.3,30.15,NNW,331,0.0,0.0,77,0.00,,,0.01,0.00,VWS V14.01,2013-02-25 00:27:00,
2013-02-24 19:28:00,31.6,25.2,30.15,NNW,331,0.0,0.0,77,0.00,,,0.01,0.00,VWS V14.01,2013-02-25 00:28:00,
2013-02-24 19:29:00,31.5,25.1,30.15,NNW,331,0.0,0.0,77,0.00,,,0.01,0.00,VWS V14.01,2013-02-25 00:29:00,
2013-02-24 19:32:00,31.4,25.4,30.15,NNW,331,0.0,0.0,78,0.00,,,0.01,0.00,VWS V14.01,2013-02-25 00:32:00,
2013-02-24 19:33:00,31.3,25.2,30.15,NNW,331,0.0,0.0,78,0.00,,,0.01,0.00,VWS V14.01,2013-02-25 00:33:00,
2013-02-24 19:34:00,31.2,25.1,30.15,NNW,331,0.0,0.0,78,0.00,,,0.01,0.00,VWS V14.01,2013-02-25 00:34:00,
2013-02-24 19:37:00,31.1,25.0,30.16,NNW,331,0.0,0.0,78,0.00,,,0.01,0.00,VWS V14.01,2013-02-25 00:37:00,
2013-02-24 19:38:00,31.0,25.0,30.16,NNW,331,0.0,0.0,78,0.00,,,0.01,0.00,VWS V14.01,2013-02-25 00:38:00,
2013-02-24 19:40:00,30.9,24.9,30.16,NNW,331,0.0,0.0,78,0.00,,,0.01,0.00,VWS V14.01,2013-02-25 00:40:00,
2013-02-24 19:42:00,30.8,24.8,30.16,NNW,331,0.0,0.0,78,0.00,,,0.01,0.00,VWS V14.01,2013-02-25 00:42:00,
2013-02-24 19:43:00,30.8,24.8,30.16,NNW,331,0.0,0.0,78,0.00,,,0.01,0.00,VWS V14.01,2013-02-25 00:43:00,
2013-02-24 19:45:00,30.7,25.0,30.16,NNW,331,0.0,0.0,79,0.00,,,0.01,0.00,VWS V14.01,2013-02-25 00:45:00,
2013-02-24 19:47:00,30.6,24.6,30.16,NNW,331,0.0,0.0,78,0.00,,,0.01,0.00,VWS V14.01,2013-02-25 00:47:00,
2013-02-24 19:48:00,30.6,24.9,30.16,NNW,331,0.0,0.0,79,0.00,,,0.01,0.00,VWS V14.01,2013-02-25 00:48:00,
2013-02-24 19:50:00,30.5,24.8,30.16,NNW,331,0.0,0.0,79,0.00,,,0.01,0.00,VWS V14.01,2013-02-25 00:50:00,
2013-02-24 19:52:00,30.5,24.8,30.16,NNW,331,0.0,0.0,79,0.00,,,0.01,0.00,VWS V14.01,2013-02-25 00:52:00,
2013-02-24 19:53:00,30.4,24.7,30.16,NNW,331,0.0,0.0,79,0.00,,,0.01,0.00,VWS V14.01,2013-02-25 00:53:00,
2013-02-24 19:55:00,30.3,24.6,30.16,NNW,331,0.0,0.0,79,0.00,,,0.01,0.00,VWS V14.01,2013-02-25 00:55:00,
2013-02-24 19:57:00,30.3,24.9,30.16,NNW,331,0.0,0.0,80,0.00,,,0.01,0.00,VWS V14.01,2013-02-25 00:57:00,
2013-02-24 19:58:00,30.3,24.9,30.16,NNW,331,0.0,0.0,80,0.00,,,0.01,0.00,VWS V14.01,2013-02-25 00:58:00,
2013-02-24 19:59:00,30.3,24.9,30.16,NNW,331,0.0,0.0,80,0.00,,,0.01,0.00,VWS V14.01,2013-02-25 00:59:00,
2013-02-24 20:00:00,30.2,24.8,30.16,NNW,331,0.0,0.0,80,0.00,,,0.01,0.00,VWS V14.01,2013-02-25 01:00:00,
2013-02-24 20:02:00,30.1,24.7,30.16,NNW,331,0.0,0.0,80,0.00,,,0.01,0.00,VWS V14.01,2013-02-25 01:02:00,
2013-02-24 20:04:00,30.1,24.7,30.16,NNW,331,0.0,0.0,80,0.00,,,0.01,0.00,VWS V14.01,2013-02-25 01:04:00,
2013-02-24 20:05:00,30.0,24.6,30.16,NNW,331,0.0,0.0,80,0.00,,,0.01,0.00,VWS V14.01,2013-02-25 01:05:00,
2013-02-24 20:07:00,29.9,24.5,30.16,NNW,331,0.0,0.0,80,0.00,,,0.01,0.00,VWS V14.01,2013-02-25 01:07:00,
2013-02-24 20:09:00,29.8,24.4,30.16,NNW,331,0.0,0.0,80,0.00,,,0.01,0.00,VWS V14.01,2013-02-25 01:09:00,
2013-02-24 20:10:00,29.8,24.4,30.16,NNW,331,0.0,0.0,80,0.00,,,0.01,0.00,VWS V14.01,2013-02-25 01:10:00,
2013-02-24 20:12:00,29.7,24.3,30.16,NNW,331,0.0,0.0,80,0.00,,,0.01,0.00,VWS V14.01,2013-02-25 01:12:00,
2013-02-24 20:14:00,29.7,24.3,30.16,NNW,331,0.0,0.0,80,0.00,,,0.01,0.00,VWS V14.01,2013-02-25 01:14:00,
2013-02-24 20:16:00,29.6,24.2,30.16,NNW,331,0.0,0.0,80,0.00,,,0.01,0.00,VWS V14.01,2013-02-25 01:16:00,
2013-02-24 20:17:00,29.5,24.1,30.16,NNW,331,0.0,0.0,80,0.00,,,0.01,0.00,VWS V14.01,2013-02-25 01:17:00,
2013-02-24 20:19:00,29.4,24.0,30.16,NNW,331,0.0,0.0,80,0.00,,,0.01,0.00,VWS V14.01,2013-02-25 01:19:00,
2013-02-24 20:21:00,29.3,23.9,30.16,NNW,331,0.0,0.0,80,0.00,,,0.01,0.00,VWS V14.01,2013-02-25 01:21:00,
2013-02-24 20:22:00,29.3,23.9,30.16,NNW,331,0.0,0.0,80,0.00,,,0.01,0.00,VWS V14.01,2013-02-25 01:22:00,
2013-02-24 20:24:00,29.2,23.8,30.16,NNW,331,0.0,0.0,80,0.00,,,0.01,0.00,VWS V14.01,2013-02-25 01:24:00,
2013-02-24 20:26:00,29.1,24.0,30.16,NNW,331,0.0,0.0,81,0.00,,,0.01,0.00,VWS V14.01,2013-02-25 01:26:00,
2013-02-24 20:27:00,29.0,23.9,30.16,NNW,331,0.0,0.0,81,0.00,,,0.01,0.00,VWS V14.01,2013-02-25 01:27:00,
2013-02-24 20:29:00,29.0,23.9,30.16,NNW,331,0.0,0.0,81,0.00,,,0.01,0.00,VWS V14.01,2013-02-25 01:29:00,
2013-02-24 20:31:00,28.9,24.1,30.16,NNW,331,0.0,0.0,82,0.00,,,0.01,0.00,VWS V14.01,2013-02-25 01:31:00,
2013-02-24 20:32:00,28.8,24.0,30.16,NNW,331,0.0,0.0,82,0.00,,,0.01,0.00,VWS V14.01,2013-02-25 01:32:00,
2013-02-24 20:34:00,28.7,23.9,30.16,NNW,331,0.0,0.0,82,0.00,,,0.01,0.00,VWS V14.01,2013-02-25 01:34:00,
2013-02-24 20:36:00,28.7,23.9,30.16,NNW,331,0.0,0.0,82,0.00,,,0.01,0.00,VWS V14.01,2013-02-25 01:36:00,
2013-02-24 20:38:00,28.6,24.1,30.16,NNW,331,0.0,0.0,83,0.00,,,0.01,0.00,VWS V14.01,2013-02-25 01:38:00,
2013-02-24 20:39:00,28.6,24.1,30.16,NNW,331,0.0,0.0,83,0.00,,,0.01,0.00,VWS V14.01,2013-02-25 01:39:00,
2013-02-24 20:41:00,28.5,24.0,30.16,NNW,331,0.0,0.0,83,0.00,,,0.01,0.00,VWS V14.01,2013-02-25 01:41:00,
2013-02-24 20:43:00,28.5,24.3,30.16,NNW,331,0.0,0.0,84,0.00,,,0.01,0.00,VWS V14.01,2013-02-25 01:43:00,
2013-02-24 20:44:00,28.5,24.3,30.16,NNW,331,0.0,0.0,84,0.00,,,0.01,0.00,VWS V14.01,2013-02-25 01:44:00,
2013-02-24 20:46:00,28.5,24.3,30.17,NNW,331,0.0,0.0,84,0.00,,,0.01,0.00,VWS V14.01,2013-02-25 01:46:00,
2013-02-24 20:48:00,28.5,24.3,30.17,NNW,331,0.0,0.0,84,0.00,,,0.01,0.00,VWS V14.01,2013-02-25 01:48:00,
2013-02-24 20:49:00,28.5,24.3,30.17,NNW,331,0.0,0.0,84,0.00,,,0.01,0.00,VWS V14.01,2013-02-25 01:49:00,
2013-02-24 20:51:00,28.4,24.2,30.17,NNW,331,0.0,0.0,84,0.00,,,0.01,0.00,VWS V14.01,2013-02-25 01:51:00,
2013-02-24 20:53:00,28.4,24.5,30.17,NNW,331,0.0,0.0,85,0.00,,,0.01,0.00,VWS V14.01,2013-02-25 01:53:00,
2013-02-24 20:54:00,28.4,24.5,30.17,NNW,331,0.0,0.0,85,0.00,,,0.01,0.00,VWS V14.01,2013-02-25 01:54:00,
2013-02-24 20:56:00,28.3,24.4,30.16,NNW,331,0.0,0.0,85,0.00,,,0.01,0.00,VWS V14.01,2013-02-25 01:56:00,
2013-02-24 20:58:00,28.3,24.4,30.16,NNW,331,0.0,0.0,85,0.00,,,0.01,0.00,VWS V14.01,2013-02-25 01:58:00,
2013-02-24 20:59:00,28.2,24.3,30.16,NNW,331,0.0,0.0,85,0.00,,,0.01,0.00,VWS V14.01,2013-02-25 01:59:00,
2013-02-24 21:01:00,28.2,24.3,30.16,NNW,331,0.0,0.0,85,0.00,,,0.01,0.00,VWS V14.01,2013-02-25 02:01:00,
2013-02-24 21:03:00,28.1,23.9,30.16,NNW,331,0.0,0.0,84,0.00,,,0.01,0.00,VWS V14.01,2013-02-25 02:03:00,
2013-02-24 21:04:00,28.1,23.9,30.16,NNW,331,0.0,0.0,84,0.00,,,0.01,0.00,VWS V14.01,2013-02-25 02:04:00,
2013-02-24 21:06:00,28.0,23.8,30.16,NNW,331,0.0,0.0,84,0.00,,,0.01,0.00,VWS V14.01,2013-02-25 02:06:00,
2013-02-24 21:08:00,27.9,23.7,30.16,NNW,331,0.0,0.0,84,0.00,,,0.01,0.00,VWS V14.01,2013-02-25 02:08:00,
2013-02-24 21:09:00,27.9,23.7,30.16,NNW,331,0.0,0.0,84,0.00,,,0.01,0.00,VWS V14.01,2013-02-25 02:09:00,
2013-02-24 21:11:00,27.8,23.6,30.16,NNW,331,0.0,0.0,84,0.00,,,0.01,0.00,VWS V14.01,2013-02-25 02:11:00,
2013-02-24 21:13:00,27.7,23.5,30.16,NNW,331,0.0,0.0,84,0.00,,,0.01,0.00,VWS V14.01,2013-02-25 02:13:00,
2013-02-24 21:14:00,27.6,23.4,30.16,NNW,331,0.0,0.0,84,0.00,,,0.01,0.00,VWS V14.01,2013-02-25 02:14:00,
2013-02-24 21:16:00,27.5,23.3,30.16,NNW,331,0.0,0.0,84,0.00,,,0.01,0.00,VWS V14.01,2013-02-25 02:16:00,
2013-02-24 21:18:00,27.3,23.1,30.16,NNW,331,0.0,0.0,84,0.00,,,0.01,0.00,VWS V14.01,2013-02-25 02:18:00,
2013-02-24 21:19:00,27.2,23.0,30.16,NNW,331,0.0,0.0,84,0.00,,,0.01,0.00,VWS V14.01,2013-02-25 02:19:00,
2013-02-24 21:21:00,27.1,23.2,30.16,NNW,331,0.0,0.0,85,0.00,,,0.01,0.00,VWS V14.01,2013-02-25 02:21:00,
2013-02-24 21:23:00,27.1,23.2,30.16,NNW,331,0.0,0.0,85,0.00,,,0.01,0.00,VWS V14.01,2013-02-25 02:23:00,
2013-02-24 21:24:00,27.0,23.1,30.16,NNW,331,0.0,0.0,85,0.00,,,0.01,0.00,VWS V14.01,2013-02-25 02:24:00,
2013-02-24 21:26:00,27.0,23.4,30.16,NNW,331,0.0,0.0,86,0.00,,,0.01,0.00,VWS V14.01,2013-02-25 02:26:00,
2013-02-24 21:28:00,26.9,23.3,30.16,NNW,331,0.0,0.0,86,0.00,,,0.01,0.00,VWS V14.01,2013-02-25 02:28:00,
2013-02-24 21:29:00,26.9,23.3,30.16,NNW,331,0.0,0.0,86,0.00,,,0.01,0.00,VWS V14.01,2013-02-25 02:29:00,
2013-02-24 21:31:00,26.9,23.3,30.16,NNW,331,0.0,0.0,86,0.00,,,0.01,0.00,VWS V14.01,2013-02-25 02:31:00,
2013-02-24 21:33:00,26.8,23.2,30.16,NNW,331,0.0,0.0,86,0.00,,,0.01,0.00,VWS V14.01,2013-02-25 02:33:00,
2013-02-24 21:34:00,26.8,23.2,30.16,NNW,331,0.0,0.0,86,0.00,,,0.01,0.00,VWS V14.01,2013-02-25 02:34:00,
2013-02-24 21:36:00,26.8,23.2,30.16,NNW,331,0.0,0.0,86,0.00,,,0.01,0.00,VWS V14.01,2013-02-25 02:36:00,
2013-02-24 21:38:00,26.8,23.2,30.16,NNW,331,0.0,0.0,86,0.00,,,0.01,0.00,VWS V14.01,2013-02-25 02:38:00,
2013-02-24 21:39:00,26.8,23.5,30.16,NNW,331,0.0,0.0,87,0.00,,,0.01,0.00,VWS V14.01,2013-02-25 02:39:00,
2013-02-24 21:41:00,26.8,23.5,30.16,NNW,331,0.0,0.0,87,0.00,,,0.01,0.00,VWS V14.01,2013-02-25 02:41:00,
2013-02-24 21:43:00,26.8,23.5,30.16,NNW,331,0.0,0.0,87,0.00,,,0.01,0.00,VWS V14.01,2013-02-25 02:43:00,
2013-02-24 21:44:00,26.8,23.5,30.16,NNW,331,0.0,0.0,87,0.00,,,0.01,0.00,VWS V14.01,2013-02-25 02:44:00,
2013-02-24 21:45:00,26.7,23.4,30.16,NNW,331,0.0,0.0,87,0.00,,,0.01,0.00,VWS V14.01,2013-02-25 02:45:00,
2013-02-24 21:46:00,26.7,23.4,30.16,NNW,331,0.0,0.0,87,0.00,,,0.01,0.00,VWS V14.01,2013-02-25 02:46:00,
2013-02-24 21:48:00,26.8,23.5,30.16,NNW,331,0.0,0.0,87,0.00,,,0.01,0.00,VWS V14.01,2013-02-25 02:48:00,
2013-02-24 21:49:00,26.7,23.4,30.16,NNW,331,0.0,0.0,87,0.00,,,0.01,0.00,VWS V14.01,2013-02-25 02:49:00,
2013-02-24 21:50:00,26.7,23.4,30.16,NNW,331,0.0,0.0,87,0.00,,,0.01,0.00,VWS V14.01,2013-02-25 02:50:00,
2013-02-24 21:51:00,26.8,23.7,30.16,NNW,331,0.0,0.0,88,0.00,,,0.01,0.00,VWS V14.01,2013-02-25 02:51:00,
2013-02-24 21:53:00,26.8,23.7,30.16,NNW,331,0.0,0.0,88,0.00,,,0.01,0.00,VWS V14.01,2013-02-25 02:53:00,
2013-02-24 21:55:00,26.8,23.7,30.16,NNW,331,0.0,0.0,88,0.00,,,0.01,0.00,VWS V14.01,2013-02-25 02:55:00,
2013-02-24 21:56:00,26.8,23.7,30.16,NNW,331,0.0,0.0,88,0.00,,,0.01,0.00,VWS V14.01,2013-02-25 02:56:00,
2013-02-24 21:58:00,26.8,23.7,30.16,NNW,331,0.0,0.0,88,0.00,,,0.01,0.00,VWS V14.01,2013-02-25 02:58:00,
2013-02-24 22:00:00,26.8,23.7,30.16,NNW,331,0.0,0.0,88,0.00,,,0.01,0.00,VWS V14.01,2013-02-25 03:00:00,
2013-02-24 22:02:00,26.7,23.6,30.16,NNW,331,0.0,0.0,88,0.00,,,0.01,0.00,VWS V14.01,2013-02-25 03:02:00,
2013-02-24 22:03:00,26.7,23.6,30.16,NNW,331,0.0,0.0,88,0.00,,,0.01,0.00,VWS V14.01,2013-02-25 03:03:00,
2013-02-24 22:05:00,26.7,23.6,30.16,NNW,331,0.0,0.0,88,0.00,,,0.01,0.00,VWS V14.01,2013-02-25 03:05:00,
2013-02-24 22:07:00,26.6,23.5,30.16,NNW,331,0.0,0.0,88,0.00,,,0.01,0.00,VWS V14.01,2013-02-25 03:07:00,
2013-02-24 22:08:00,26.6,23.5,30.16,NNW,331,0.0,0.0,88,0.00,,,0.01,0.00,VWS V14.01,2013-02-25 03:08:00,
2013-02-24 22:10:00,26.6,23.5,30.16,NNW,331,0.0,0.0,88,0.00,,,0.01,0.00,VWS V14.01,2013-02-25 03:10:00,
2013-02-24 22:12:00,26.6,23.5,30.16,NNW,331,0.0,0.0,88,0.00,,,0.01,0.00,VWS V14.01,2013-02-25 03:12:00,
2013-02-24 22:13:00,26.5,23.4,30.16,NNW,331,0.0,0.0,88,0.00,,,0.01,0.00,VWS V14.01,2013-02-25 03:13:00,
2013-02-24 22:15:00,26.5,23.7,30.16,NNW,331,0.0,0.0,89,0.00,,,0.01,0.00,VWS V14.01,2013-02-25 03:15:00,
2013-02-24 22:17:00,26.5,23.7,30.16,NNW,331,0.0,0.0,89,0.00,,,0.01,0.00,VWS V14.01,2013-02-25 03:17:00,
2013-02-24 22:18:00,26.4,23.3,30.16,NNW,331,0.0,0.0,88,0.00,,,0.01,0.00,VWS V14.01,2013-02-25 03:18:00,
2013-02-24 22:20:00,26.3,23.5,30.16,NNW,331,0.0,0.0,89,0.00,,,0.01,0.00,VWS V14.01,2013-02-25 03:20:00,
2013-02-24 22:22:00,26.3,23.5,30.16,NNW,331,0.0,0.0,89,0.00,,,0.01,0.00,VWS V14.01,2013-02-25 03:22:00,
2013-02-24 22:23:00,26.3,23.5,30.16,NNW,331,0.0,0.0,89,0.00,,,0.01,0.00,VWS V14.01,2013-02-25 03:23:00,
2013-02-24 22:25:00,26.2,23.4,30.16,NNW,331,0.0,0.0,89,0.00,,,0.01,0.00,VWS V14.01,2013-02-25 03:25:00,
2013-02-24 22:26:00,26.2,23.4,30.16,NNW,331,0.0,0.0,89,0.00,,,0.01,0.00,VWS V14.01,2013-02-25 03:26:00,
2013-02-24 22:27:00,26.2,23.4,30.16,NNW,331,0.0,0.0,89,0.00,,,0.01,0.00,VWS V14.01,2013-02-25 03:27:00,
2013-02-24 22:29:00,26.1,23.3,30.16,NNW,331,0.0,0.0,89,0.00,,,0.01,0.00,VWS V14.01,2013-02-25 03:29:00,
2013-02-24 22:30:00,26.1,23.3,30.16,NNW,331,0.0,0.0,89,0.00,,,0.01,0.00,VWS V14.01,2013-02-25 03:30:00,
2013-02-24 22:31:00,26.1,23.3,30.16,NNW,331,0.0,0.0,89,0.00,,,0.01,0.00,VWS V14.01,2013-02-25 03:31:00,
2013-02-24 22:32:00,26.1,23.3,30.16,NNW,331,0.0,0.0,89,0.00,,,0.01,0.00,VWS V14.01,2013-02-25 03:32:00,
2013-02-24 22:34:00,26.1,23.3,30.16,NNW,331,0.0,0.0,89,0.00,,,0.01,0.00,VWS V14.01,2013-02-25 03:34:00,
2013-02-24 22:35:00,26.1,23.3,30.16,NNW,331,0.0,0.0,89,0.00,,,0.01,0.00,VWS V14.01,2013-02-25 03:35:00,
2013-02-24 22:36:00,26.1,23.3,30.16,NNW,331,0.0,0.0,89,0.00,,,0.01,0.00,VWS V14.01,2013-02-25 03:36:00,
2013-02-24 22:37:00,26.1,23.3,30.16,NNW,331,0.0,0.0,89,0.00,,,0.01,0.00,VWS V14.01,2013-02-25 03:37:00,
2013-02-24 22:39:00,26.0,23.2,30.16,NNW,331,0.0,0.0,89,0.00,,,0.01,0.00,VWS V14.01,2013-02-25 03:39:00,
2013-02-24 22:40:00,26.0,23.2,30.16,NNW,331,0.0,0.0,89,0.00,,,0.01,0.00,VWS V14.01,2013-02-25 03:40:00,
2013-02-24 22:41:00,26.0,23.2,30.16,NNW,331,0.0,0.0,89,0.00,,,0.01,0.00,VWS V14.01,2013-02-25 03:41:00,
2013-02-24 22:42:00,26.0,23.5,30.16,NNW,331,0.0,0.0,90,0.00,,,0.01,0.00,VWS V14.01,2013-02-25 03:42:00,
2013-02-24 22:44:00,25.9,23.4,30.16,NNW,331,0.0,0.0,90,0.00,,,0.01,0.00,VWS V14.01,2013-02-25 03:44:00,
2013-02-24 22:45:00,25.9,23.4,30.16,NNW,331,0.0,0.0,90,0.00,,,0.01,0.00,VWS V14.01,2013-02-25 03:45:00,
2013-02-24 22:46:00,25.9,23.4,30.16,NNW,331,0.0,0.0,90,0.00,,,0.01,0.00,VWS V14.01,2013-02-25 03:46:00,
2013-02-24 22:47:00,25.8,23.0,30.16,NNW,331,0.0,0.0,89,0.00,,,0.01,0.00,VWS V14.01,2013-02-25 03:47:00,
2013-02-24 22:49:00,25.7,22.9,30.16,NNW,331,0.0,0.0,89,0.00,,,0.01,0.00,VWS V14.01,2013-02-25 03:49:00,
2013-02-24 22:50:00,25.7,22.9,30.16,NNW,331,0.0,0.0,89,0.00,,,0.01,0.00,VWS V14.01,2013-02-25 03:50:00,
2013-02-24 22:51:00,25.7,22.9,30.16,NNW,331,0.0,0.0,89,0.00,,,0.01,0.00,VWS V14.01,2013-02-25 03:51:00,
2013-02-24 22:52:00,25.6,23.1,30.16,NNW,331,0.0,0.0,90,0.00,,,0.01,0.00,VWS V14.01,2013-02-25 03:52:00,
2013-02-24 22:54:00,25.6,23.1,30.16,NNW,331,0.0,0.0,90,0.00,,,0.01,0.00,VWS V14.01,2013-02-25 03:54:00,
2013-02-24 22:55:00,25.6,23.1,30.16,NNW,331,0.0,0.0,90,0.00,,,0.01,0.00,VWS V14.01,2013-02-25 03:55:00,
2013-02-24 22:56:00,25.5,23.0,30.16,NNW,331,0.0,0.0,90,0.00,,,0.01,0.00,VWS V14.01,2013-02-25 03:56:00,
2013-02-24 22:57:00,25.5,23.0,30.16,NNW,331,0.0,0.0,90,0.00,,,0.01,0.00,VWS V14.01,2013-02-25 03:57:00,
2013-02-24 22:59:00,25.4,22.9,30.16,NNW,331,0.0,0.0,90,0.00,,,0.01,0.00,VWS V14.01,2013-02-25 03:59:00,
2013-02-24 23:00:00,25.4,22.9,30.16,NNW,331,0.0,0.0,90,0.00,,,0.01,0.00,VWS V14.01,2013-02-25 04:00:00,
2013-02-24 23:01:00,25.4,22.9,30.16,NNW,331,0.0,0.0,90,0.00,,,0.01,0.00,VWS V14.01,2013-02-25 04:01:00,
2013-02-24 23:02:00,25.4,22.9,30.16,NNW,331,0.0,0.0,90,0.00,,,0.01,0.00,VWS V14.01,2013-02-25 04:02:00,
2013-02-24 23:04:00,25.4,22.9,30.16,NNW,331,0.0,0.0,90,0.00,,,0.01,0.00,VWS V14.01,2013-02-25 04:04:00,
2013-02-24 23:05:00,25.4,22.9,30.16,NNW,331,0.0,0.0,90,0.00,,,0.01,0.00,VWS V14.01,2013-02-25 04:05:00,
2013-02-24 23:06:00,25.4,22.9,30.16,NNW,331,0.0,0.0,90,0.00,,,0.01,0.00,VWS V14.01,2013-02-25 04:06:00,
2013-02-24 23:07:00,25.4,23.1,30.16,NNW,331,0.0,0.0,91,0.00,,,0.01,0.00,VWS V14.01,2013-02-25 04:07:00,
2013-02-24 23:09:00,25.4,22.9,30.16,NNW,331,0.0,0.0,90,0.00,,,0.01,0.00,VWS V14.01,2013-02-25 04:09:00,
2013-02-24 23:10:00,25.4,23.1,30.16,NNW,331,0.0,0.0,91,0.00,,,0.01,0.00,VWS V14.01,2013-02-25 04:10:00,
2013-02-24 23:11:00,25.4,23.1,30.16,NNW,331,0.0,0.0,91,0.00,,,0.01,0.00,VWS V14.01,2013-02-25 04:11:00,
2013-02-24 23:12:00,25.4,23.1,30.16,NNW,331,0.0,0.0,91,0.00,,,0.01,0.00,VWS V14.01,2013-02-25 04:12:00,
2013-02-24 23:14:00,25.4,23.1,30.16,NNW,331,0.0,0.0,91,0.00,,,0.01,0.00,VWS V14.01,2013-02-25 04:14:00,
2013-02-24 23:15:00,25.4,23.1,30.16,NNW,331,0.0,0.0,91,0.00,,,0.01,0.00,VWS V14.01,2013-02-25 04:15:00,
2013-02-24 23:16:00,25.4,23.1,30.16,NNW,331,0.0,0.0,91,0.00,,,0.01,0.00,VWS V14.01,2013-02-25 04:16:00,
2013-02-24 23:19:00,25.3,23.0,30.16,NNW,331,0.0,0.0,91,0.00,,,0.01,0.00,VWS V14.01,2013-02-25 04:19:00,
2013-02-24 23:21:00,25.3,23.0,30.16,NNW,331,0.0,0.0,91,0.00,,,0.01,0.00,VWS V14.01,2013-02-25 04:21:00,
2013-02-24 23:24:00,25.2,22.7,30.16,NNW,331,0.0,0.0,90,0.00,,,0.01,0.00,VWS V14.01,2013-02-25 04:24:00,
2013-02-24 23:25:00,25.1,22.6,30.16,NNW,331,0.0,0.0,90,0.00,,,0.01,0.00,VWS V14.01,2013-02-25 04:25:00,
2013-02-24 23:26:00,25.1,22.6,30.16,NNW,331,0.0,0.0,90,0.00,,,0.01,0.00,VWS V14.01,2013-02-25 04:26:00,
2013-02-24 23:29:00,24.9,22.4,30.16,NNW,331,0.0,0.0,90,0.00,,,0.01,0.00,VWS V14.01,2013-02-25 04:29:00,
2013-02-24 23:31:00,24.9,22.4,30.16,NNW,331,0.0,0.0,90,0.00,,,0.01,0.00,VWS V14.01,2013-02-25 04:31:00,
2013-02-24 23:34:00,24.7,22.5,30.16,NNW,331,0.0,0.0,91,0.00,,,0.01,0.00,VWS V14.01,2013-02-25 04:34:00,
2013-02-24 23:36:00,24.7,22.5,30.16,NNW,331,0.0,0.0,91,0.00,,,0.01,0.00,VWS V14.01,2013-02-25 04:36:00,
2013-02-24 23:39:00,24.7,22.5,30.16,NNW,331,0.0,0.0,91,0.00,,,0.01,0.00,VWS V14.01,2013-02-25 04:39:00,
2013-02-24 23:40:00,24.7,22.5,30.16,NNW,331,0.0,0.0,91,0.00,,,0.01,0.00,VWS V14.01,2013-02-25 04:40:00,
2013-02-24 23:41:00,24.6,22.4,30.16,NNW,331,0.0,0.0,91,0.00,,,0.01,0.00,VWS V14.01,2013-02-25 04:41:00,
2013-02-24 23:45:00,24.5,22.2,30.16,NNW,331,0.0,0.0,91,0.00,,,0.01,0.00,VWS V14.01,2013-02-25 04:45:00,
2013-02-24 23:46:00,24.5,22.2,30.16,NNW,331,0.0,0.0,91,0.00,,,0.01,0.00,VWS V14.01,2013-02-25 04:46:00,
2013-02-24 23:50:00,24.4,22.2,30.16,NNW,331,0.0,0.0,91,0.00,,,0.01,0.00,VWS V14.01,2013-02-25 04:50:00,
2013-02-24 23:51:00,24.4,22.2,30.16,NNW,331,0.0,0.0,91,0.00,,,0.01,0.00,VWS V14.01,2013-02-25 04:51:00,
2013-02-24 23:55:00,24.4,22.2,30.16,NNW,331,0.0,0.0,91,0.00,,,0.01,0.00,VWS V14.01,2013-02-25 04:55:00,
2013-02-24 23:56:00,24.4,22.2,30.16,NNW,331,0.0,0.0,91,0.00,,,0.01,0.00,VWS V14.01,2013-02-25 04:56:00,